<?xml version="1.0" encoding="UTF-8" standalone="no" ?>
<gpx xmlns="http://www.topografix.com/GPX/1/1" xmlns:xsi="http://www.w3.org/2001/XMLSchema-instance" xsi:schemaLocation="http://www.topografix.com/GPX/1/1 http://www.topografix.com/GPX/1/1/gpx.xsd" version="1.1" creator="VisuGPX - https://www.visugpx.com">
  <metadata>
    <name>pog et marc </name>
    <desc><![CDATA[montée au dessus d\'hauteluce ]]></desc>
  </metadata>
  <trk>
    <name><![CDATA[girotte]]></name>
    <trkseg>
      <trkpt lat="45.77193" lon="6.652">
        <ele>1494.8000488281</ele>
        <time>2014-04-07T08:15:36.000Z</time>
      </trkpt>
      <trkpt lat="45.77189" lon="6.65212">
        <ele>1496.4000244141</ele>
        <time>2014-04-07T08:15:40.000Z</time>
      </trkpt>
      <trkpt lat="45.77188" lon="6.65217">
        <ele>1497.1999511719</ele>
        <time>2014-04-07T08:15:44.000Z</time>
      </trkpt>
      <trkpt lat="45.77186" lon="6.65226">
        <ele>1498.4000244141</ele>
        <time>2014-04-07T08:15:51.000Z</time>
      </trkpt>
      <trkpt lat="45.77187" lon="6.65233">
        <ele>1499.4000244141</ele>
        <time>2014-04-07T08:15:57.000Z</time>
      </trkpt>
      <trkpt lat="45.77189" lon="6.65237">
        <ele>1499.5999755859</ele>
        <time>2014-04-07T08:16:01.000Z</time>
      </trkpt>
      <trkpt lat="45.77188" lon="6.65241">
        <ele>1500.1999511719</ele>
        <time>2014-04-07T08:16:06.000Z</time>
      </trkpt>
      <trkpt lat="45.7719" lon="6.65247">
        <ele>1500.8000488281</ele>
        <time>2014-04-07T08:16:11.000Z</time>
      </trkpt>
      <trkpt lat="45.77189" lon="6.6525">
        <ele>1501.1999511719</ele>
        <time>2014-04-07T08:16:14.000Z</time>
      </trkpt>
      <trkpt lat="45.7719" lon="6.65251">
        <ele>1501.1999511719</ele>
        <time>2014-04-07T08:16:16.000Z</time>
      </trkpt>
      <trkpt lat="45.77193" lon="6.65254">
        <ele>1500.8000488281</ele>
        <time>2014-04-07T08:16:22.000Z</time>
      </trkpt>
      <trkpt lat="45.77195" lon="6.65256">
        <ele>1500.8000488281</ele>
        <time>2014-04-07T08:16:24.000Z</time>
      </trkpt>
      <trkpt lat="45.77198" lon="6.6526">
        <ele>1500.4000244141</ele>
        <time>2014-04-07T08:16:33.000Z</time>
      </trkpt>
      <trkpt lat="45.77199" lon="6.65265">
        <ele>1500.4000244141</ele>
        <time>2014-04-07T08:16:39.000Z</time>
      </trkpt>
      <trkpt lat="45.77198" lon="6.6527">
        <ele>1500.4000244141</ele>
        <time>2014-04-07T08:16:44.000Z</time>
      </trkpt>
      <trkpt lat="45.77197" lon="6.65275">
        <ele>1500.5999755859</ele>
        <time>2014-04-07T08:16:49.000Z</time>
      </trkpt>
      <trkpt lat="45.77197" lon="6.65281">
        <ele>1500.8000488281</ele>
        <time>2014-04-07T08:16:55.000Z</time>
      </trkpt>
      <trkpt lat="45.77192" lon="6.65289">
        <ele>1501.5999755859</ele>
        <time>2014-04-07T08:17:04.000Z</time>
      </trkpt>
      <trkpt lat="45.77187" lon="6.65295">
        <ele>1502.4000244141</ele>
        <time>2014-04-07T08:17:12.000Z</time>
      </trkpt>
      <trkpt lat="45.77188" lon="6.65295">
        <ele>1502.1999511719</ele>
        <time>2014-04-07T08:17:20.000Z</time>
      </trkpt>
      <trkpt lat="45.77188" lon="6.65296">
        <ele>1502.1999511719</ele>
        <time>2014-04-07T08:17:25.000Z</time>
      </trkpt>
      <trkpt lat="45.77189" lon="6.653">
        <ele>1502.1999511719</ele>
        <time>2014-04-07T08:17:38.000Z</time>
      </trkpt>
      <trkpt lat="45.77188" lon="6.65299">
        <ele>1502.4000244141</ele>
        <time>2014-04-07T08:17:45.000Z</time>
      </trkpt>
      <trkpt lat="45.77187" lon="6.65298">
        <ele>1502.4000244141</ele>
        <time>2014-04-07T08:17:49.000Z</time>
      </trkpt>
      <trkpt lat="45.77211" lon="6.65298">
        <ele>1499.1999511719</ele>
        <time>2014-04-07T08:18:24.000Z</time>
      </trkpt>
      <trkpt lat="45.77213" lon="6.65302">
        <ele>1499</ele>
        <time>2014-04-07T08:18:31.000Z</time>
      </trkpt>
      <trkpt lat="45.77213" lon="6.65304">
        <ele>1499</ele>
        <time>2014-04-07T08:18:36.000Z</time>
      </trkpt>
      <trkpt lat="45.77211" lon="6.65307">
        <ele>1499.4000244141</ele>
        <time>2014-04-07T08:18:42.000Z</time>
      </trkpt>
      <trkpt lat="45.77209" lon="6.65313">
        <ele>1499.5999755859</ele>
        <time>2014-04-07T08:18:50.000Z</time>
      </trkpt>
      <trkpt lat="45.77206" lon="6.65319">
        <ele>1500.1999511719</ele>
        <time>2014-04-07T08:18:59.000Z</time>
      </trkpt>
      <trkpt lat="45.77203" lon="6.65323">
        <ele>1500.5999755859</ele>
        <time>2014-04-07T08:19:05.000Z</time>
      </trkpt>
      <trkpt lat="45.77201" lon="6.65327">
        <ele>1501</ele>
        <time>2014-04-07T08:19:11.000Z</time>
      </trkpt>
      <trkpt lat="45.77198" lon="6.65331">
        <ele>1501.4000244141</ele>
        <time>2014-04-07T08:19:17.000Z</time>
      </trkpt>
      <trkpt lat="45.77195" lon="6.65337">
        <ele>1502.4000244141</ele>
        <time>2014-04-07T08:19:23.000Z</time>
      </trkpt>
      <trkpt lat="45.77192" lon="6.65339">
        <ele>1503</ele>
        <time>2014-04-07T08:19:27.000Z</time>
      </trkpt>
      <trkpt lat="45.77186" lon="6.65346">
        <ele>1504.8000488281</ele>
        <time>2014-04-07T08:19:36.000Z</time>
      </trkpt>
      <trkpt lat="45.77184" lon="6.65351">
        <ele>1505.8000488281</ele>
        <time>2014-04-07T08:19:42.000Z</time>
      </trkpt>
      <trkpt lat="45.77182" lon="6.65359">
        <ele>1507.1999511719</ele>
        <time>2014-04-07T08:19:49.000Z</time>
      </trkpt>
      <trkpt lat="45.7718" lon="6.65364">
        <ele>1508.1999511719</ele>
        <time>2014-04-07T08:19:54.000Z</time>
      </trkpt>
      <trkpt lat="45.77181" lon="6.6537">
        <ele>1509</ele>
        <time>2014-04-07T08:20:00.000Z</time>
      </trkpt>
      <trkpt lat="45.77183" lon="6.65378">
        <ele>1509.5999755859</ele>
        <time>2014-04-07T08:20:08.000Z</time>
      </trkpt>
      <trkpt lat="45.77182" lon="6.65384">
        <ele>1510.4000244141</ele>
        <time>2014-04-07T08:20:14.000Z</time>
      </trkpt>
      <trkpt lat="45.77185" lon="6.65388">
        <ele>1510.4000244141</ele>
        <time>2014-04-07T08:20:22.000Z</time>
      </trkpt>
      <trkpt lat="45.77189" lon="6.65391">
        <ele>1510.1999511719</ele>
        <time>2014-04-07T08:20:27.000Z</time>
      </trkpt>
      <trkpt lat="45.77193" lon="6.65395">
        <ele>1510</ele>
        <time>2014-04-07T08:20:34.000Z</time>
      </trkpt>
      <trkpt lat="45.77195" lon="6.65399">
        <ele>1510</ele>
        <time>2014-04-07T08:20:39.000Z</time>
      </trkpt>
      <trkpt lat="45.77198" lon="6.65404">
        <ele>1510.1999511719</ele>
        <time>2014-04-07T08:20:45.000Z</time>
      </trkpt>
      <trkpt lat="45.772" lon="6.65411">
        <ele>1510.4000244141</ele>
        <time>2014-04-07T08:20:52.000Z</time>
      </trkpt>
      <trkpt lat="45.77201" lon="6.65418">
        <ele>1511</ele>
        <time>2014-04-07T08:20:58.000Z</time>
      </trkpt>
      <trkpt lat="45.77202" lon="6.6542">
        <ele>1511</ele>
        <time>2014-04-07T08:21:00.000Z</time>
      </trkpt>
      <trkpt lat="45.77202" lon="6.6543">
        <ele>1511.5999755859</ele>
        <time>2014-04-07T08:21:09.000Z</time>
      </trkpt>
      <trkpt lat="45.77202" lon="6.65435">
        <ele>1512</ele>
        <time>2014-04-07T08:21:14.000Z</time>
      </trkpt>
      <trkpt lat="45.77201" lon="6.65441">
        <ele>1512.5999755859</ele>
        <time>2014-04-07T08:21:19.000Z</time>
      </trkpt>
      <trkpt lat="45.77199" lon="6.65445">
        <ele>1513.4000244141</ele>
        <time>2014-04-07T08:21:23.000Z</time>
      </trkpt>
      <trkpt lat="45.77194" lon="6.65448">
        <ele>1514.5999755859</ele>
        <time>2014-04-07T08:21:31.000Z</time>
      </trkpt>
      <trkpt lat="45.77189" lon="6.65449">
        <ele>1515.5999755859</ele>
        <time>2014-04-07T08:21:36.000Z</time>
      </trkpt>
      <trkpt lat="45.77187" lon="6.65449">
        <ele>1516</ele>
        <time>2014-04-07T08:21:43.000Z</time>
      </trkpt>
      <trkpt lat="45.77184" lon="6.65449">
        <ele>1516.8000488281</ele>
        <time>2014-04-07T08:21:50.000Z</time>
      </trkpt>
      <trkpt lat="45.77181" lon="6.65448">
        <ele>1517.4000244141</ele>
        <time>2014-04-07T08:21:55.000Z</time>
      </trkpt>
      <trkpt lat="45.77177" lon="6.65445">
        <ele>1518</ele>
        <time>2014-04-07T08:22:01.000Z</time>
      </trkpt>
      <trkpt lat="45.77173" lon="6.65441">
        <ele>1518.4000244141</ele>
        <time>2014-04-07T08:22:07.000Z</time>
      </trkpt>
      <trkpt lat="45.77169" lon="6.65435">
        <ele>1518.8000488281</ele>
        <time>2014-04-07T08:22:15.000Z</time>
      </trkpt>
      <trkpt lat="45.77166" lon="6.65431">
        <ele>1519</ele>
        <time>2014-04-07T08:22:21.000Z</time>
      </trkpt>
      <trkpt lat="45.77164" lon="6.65428">
        <ele>1519.1999511719</ele>
        <time>2014-04-07T08:22:26.000Z</time>
      </trkpt>
      <trkpt lat="45.77162" lon="6.65426">
        <ele>1519.5999755859</ele>
        <time>2014-04-07T08:22:31.000Z</time>
      </trkpt>
      <trkpt lat="45.77158" lon="6.65426">
        <ele>1520.1999511719</ele>
        <time>2014-04-07T08:22:37.000Z</time>
      </trkpt>
      <trkpt lat="45.77155" lon="6.65429">
        <ele>1521</ele>
        <time>2014-04-07T08:22:44.000Z</time>
      </trkpt>
      <trkpt lat="45.77154" lon="6.65432">
        <ele>1521.5999755859</ele>
        <time>2014-04-07T08:22:48.000Z</time>
      </trkpt>
      <trkpt lat="45.77153" lon="6.65435">
        <ele>1522</ele>
        <time>2014-04-07T08:22:53.000Z</time>
      </trkpt>
      <trkpt lat="45.77153" lon="6.65437">
        <ele>1522.1999511719</ele>
        <time>2014-04-07T08:22:57.000Z</time>
      </trkpt>
      <trkpt lat="45.77153" lon="6.6544">
        <ele>1522.4000244141</ele>
        <time>2014-04-07T08:23:05.000Z</time>
      </trkpt>
      <trkpt lat="45.77154" lon="6.65441">
        <ele>1522.4000244141</ele>
        <time>2014-04-07T08:23:12.000Z</time>
      </trkpt>
      <trkpt lat="45.77154" lon="6.65444">
        <ele>1522.5999755859</ele>
        <time>2014-04-07T08:23:44.000Z</time>
      </trkpt>
      <trkpt lat="45.77154" lon="6.6545">
        <ele>1523</ele>
        <time>2014-04-07T08:23:50.000Z</time>
      </trkpt>
      <trkpt lat="45.77155" lon="6.65457">
        <ele>1523.5999755859</ele>
        <time>2014-04-07T08:23:58.000Z</time>
      </trkpt>
      <trkpt lat="45.77156" lon="6.65465">
        <ele>1524</ele>
        <time>2014-04-07T08:24:06.000Z</time>
      </trkpt>
      <trkpt lat="45.77157" lon="6.65468">
        <ele>1524.1999511719</ele>
        <time>2014-04-07T08:24:10.000Z</time>
      </trkpt>
      <trkpt lat="45.77157" lon="6.65473">
        <ele>1524.4000244141</ele>
        <time>2014-04-07T08:24:15.000Z</time>
      </trkpt>
      <trkpt lat="45.77157" lon="6.65476">
        <ele>1524.5999755859</ele>
        <time>2014-04-07T08:24:24.000Z</time>
      </trkpt>
      <trkpt lat="45.77159" lon="6.6548">
        <ele>1524.5999755859</ele>
        <time>2014-04-07T08:24:36.000Z</time>
      </trkpt>
      <trkpt lat="45.7716" lon="6.65482">
        <ele>1524.5999755859</ele>
        <time>2014-04-07T08:24:38.000Z</time>
      </trkpt>
      <trkpt lat="45.77162" lon="6.65491">
        <ele>1524.5999755859</ele>
        <time>2014-04-07T08:24:45.000Z</time>
      </trkpt>
      <trkpt lat="45.77162" lon="6.65494">
        <ele>1525</ele>
        <time>2014-04-07T08:24:48.000Z</time>
      </trkpt>
      <trkpt lat="45.77159" lon="6.65504">
        <ele>1526</ele>
        <time>2014-04-07T08:24:58.000Z</time>
      </trkpt>
      <trkpt lat="45.77157" lon="6.65511">
        <ele>1526.1999511719</ele>
        <time>2014-04-07T08:25:04.000Z</time>
      </trkpt>
      <trkpt lat="45.77153" lon="6.65516">
        <ele>1526.8000488281</ele>
        <time>2014-04-07T08:25:11.000Z</time>
      </trkpt>
      <trkpt lat="45.77152" lon="6.65518">
        <ele>1527</ele>
        <time>2014-04-07T08:25:13.000Z</time>
      </trkpt>
      <trkpt lat="45.77148" lon="6.65525">
        <ele>1528</ele>
        <time>2014-04-07T08:25:21.000Z</time>
      </trkpt>
      <trkpt lat="45.77141" lon="6.65533">
        <ele>1529.5999755859</ele>
        <time>2014-04-07T08:25:31.000Z</time>
      </trkpt>
      <trkpt lat="45.77135" lon="6.6554">
        <ele>1530.5999755859</ele>
        <time>2014-04-07T08:25:40.000Z</time>
      </trkpt>
      <trkpt lat="45.7713" lon="6.65545">
        <ele>1532</ele>
        <time>2014-04-07T08:25:48.000Z</time>
      </trkpt>
      <trkpt lat="45.77128" lon="6.65546">
        <ele>1532.4000244141</ele>
        <time>2014-04-07T08:25:50.000Z</time>
      </trkpt>
      <trkpt lat="45.77124" lon="6.65548">
        <ele>1533.5999755859</ele>
        <time>2014-04-07T08:25:57.000Z</time>
      </trkpt>
      <trkpt lat="45.77121" lon="6.65549">
        <ele>1534.4000244141</ele>
        <time>2014-04-07T08:26:02.000Z</time>
      </trkpt>
      <trkpt lat="45.77119" lon="6.65549">
        <ele>1535</ele>
        <time>2014-04-07T08:26:07.000Z</time>
      </trkpt>
      <trkpt lat="45.77117" lon="6.6555">
        <ele>1535.8000488281</ele>
        <time>2014-04-07T08:26:13.000Z</time>
      </trkpt>
      <trkpt lat="45.77114" lon="6.6555">
        <ele>1536.4000244141</ele>
        <time>2014-04-07T08:26:18.000Z</time>
      </trkpt>
      <trkpt lat="45.77112" lon="6.65551">
        <ele>1537</ele>
        <time>2014-04-07T08:26:23.000Z</time>
      </trkpt>
      <trkpt lat="45.77109" lon="6.65552">
        <ele>1537.8000488281</ele>
        <time>2014-04-07T08:26:30.000Z</time>
      </trkpt>
      <trkpt lat="45.77107" lon="6.65552">
        <ele>1538.5999755859</ele>
        <time>2014-04-07T08:26:37.000Z</time>
      </trkpt>
      <trkpt lat="45.77107" lon="6.65548">
        <ele>1539</ele>
        <time>2014-04-07T08:26:41.000Z</time>
      </trkpt>
      <trkpt lat="45.77107" lon="6.65546">
        <ele>1539</ele>
        <time>2014-04-07T08:26:47.000Z</time>
      </trkpt>
      <trkpt lat="45.77106" lon="6.65543">
        <ele>1539.4000244141</ele>
        <time>2014-04-07T08:26:53.000Z</time>
      </trkpt>
      <trkpt lat="45.77105" lon="6.65541">
        <ele>1540</ele>
        <time>2014-04-07T08:26:59.000Z</time>
      </trkpt>
      <trkpt lat="45.77103" lon="6.6554">
        <ele>1540.5999755859</ele>
        <time>2014-04-07T08:27:05.000Z</time>
      </trkpt>
      <trkpt lat="45.77101" lon="6.65542">
        <ele>1541</ele>
        <time>2014-04-07T08:27:10.000Z</time>
      </trkpt>
      <trkpt lat="45.77099" lon="6.65544">
        <ele>1541.4000244141</ele>
        <time>2014-04-07T08:27:15.000Z</time>
      </trkpt>
      <trkpt lat="45.77097" lon="6.65547">
        <ele>1542</ele>
        <time>2014-04-07T08:27:21.000Z</time>
      </trkpt>
      <trkpt lat="45.77094" lon="6.65551">
        <ele>1542.8000488281</ele>
        <time>2014-04-07T08:27:28.000Z</time>
      </trkpt>
      <trkpt lat="45.77091" lon="6.65553">
        <ele>1543.4000244141</ele>
        <time>2014-04-07T08:27:35.000Z</time>
      </trkpt>
      <trkpt lat="45.77089" lon="6.65554">
        <ele>1544</ele>
        <time>2014-04-07T08:27:40.000Z</time>
      </trkpt>
      <trkpt lat="45.77086" lon="6.65556">
        <ele>1544.8000488281</ele>
        <time>2014-04-07T08:27:46.000Z</time>
      </trkpt>
      <trkpt lat="45.77083" lon="6.65558">
        <ele>1545.5999755859</ele>
        <time>2014-04-07T08:27:52.000Z</time>
      </trkpt>
      <trkpt lat="45.77081" lon="6.65558">
        <ele>1546.4000244141</ele>
        <time>2014-04-07T08:27:57.000Z</time>
      </trkpt>
      <trkpt lat="45.77078" lon="6.65558">
        <ele>1547.1999511719</ele>
        <time>2014-04-07T08:28:02.000Z</time>
      </trkpt>
      <trkpt lat="45.77076" lon="6.65558">
        <ele>1547.8000488281</ele>
        <time>2014-04-07T08:28:06.000Z</time>
      </trkpt>
      <trkpt lat="45.77075" lon="6.65558">
        <ele>1548.4000244141</ele>
        <time>2014-04-07T08:28:10.000Z</time>
      </trkpt>
      <trkpt lat="45.77071" lon="6.65557">
        <ele>1549.5999755859</ele>
        <time>2014-04-07T08:28:18.000Z</time>
      </trkpt>
      <trkpt lat="45.7707" lon="6.65557">
        <ele>1549.8000488281</ele>
        <time>2014-04-07T08:28:23.000Z</time>
      </trkpt>
      <trkpt lat="45.77069" lon="6.65555">
        <ele>1550.1999511719</ele>
        <time>2014-04-07T08:28:41.000Z</time>
      </trkpt>
      <trkpt lat="45.77071" lon="6.65547">
        <ele>1550.4000244141</ele>
        <time>2014-04-07T08:28:49.000Z</time>
      </trkpt>
      <trkpt lat="45.77073" lon="6.65542">
        <ele>1550.1999511719</ele>
        <time>2014-04-07T08:28:55.000Z</time>
      </trkpt>
      <trkpt lat="45.77073" lon="6.65537">
        <ele>1550.4000244141</ele>
        <time>2014-04-07T08:29:01.000Z</time>
      </trkpt>
      <trkpt lat="45.77072" lon="6.65534">
        <ele>1551</ele>
        <time>2014-04-07T08:29:09.000Z</time>
      </trkpt>
      <trkpt lat="45.77071" lon="6.65529">
        <ele>1551.5999755859</ele>
        <time>2014-04-07T08:29:19.000Z</time>
      </trkpt>
      <trkpt lat="45.77071" lon="6.65525">
        <ele>1552.1999511719</ele>
        <time>2014-04-07T08:29:22.000Z</time>
      </trkpt>
      <trkpt lat="45.77071" lon="6.65516">
        <ele>1552.8000488281</ele>
        <time>2014-04-07T08:29:29.000Z</time>
      </trkpt>
      <trkpt lat="45.77071" lon="6.6551">
        <ele>1553.4000244141</ele>
        <time>2014-04-07T08:29:36.000Z</time>
      </trkpt>
      <trkpt lat="45.77071" lon="6.65508">
        <ele>1553.4000244141</ele>
        <time>2014-04-07T08:29:44.000Z</time>
      </trkpt>
      <trkpt lat="45.77071" lon="6.65509">
        <ele>1553.5999755859</ele>
        <time>2014-04-07T08:29:49.000Z</time>
      </trkpt>
      <trkpt lat="45.77071" lon="6.6551">
        <ele>1553.1999511719</ele>
        <time>2014-04-07T08:29:55.000Z</time>
      </trkpt>
      <trkpt lat="45.77072" lon="6.65511">
        <ele>1552.8000488281</ele>
        <time>2014-04-07T08:30:03.000Z</time>
      </trkpt>
      <trkpt lat="45.77072" lon="6.65516">
        <ele>1552.5999755859</ele>
        <time>2014-04-07T08:30:07.000Z</time>
      </trkpt>
      <trkpt lat="45.7707" lon="6.65521">
        <ele>1552.8000488281</ele>
        <time>2014-04-07T08:30:12.000Z</time>
      </trkpt>
      <trkpt lat="45.77068" lon="6.65526">
        <ele>1553.1999511719</ele>
        <time>2014-04-07T08:30:19.000Z</time>
      </trkpt>
      <trkpt lat="45.77063" lon="6.65531">
        <ele>1554.4000244141</ele>
        <time>2014-04-07T08:30:26.000Z</time>
      </trkpt>
      <trkpt lat="45.7706" lon="6.65536">
        <ele>1555.1999511719</ele>
        <time>2014-04-07T08:30:33.000Z</time>
      </trkpt>
      <trkpt lat="45.77056" lon="6.65539">
        <ele>1556.4000244141</ele>
        <time>2014-04-07T08:30:40.000Z</time>
      </trkpt>
      <trkpt lat="45.77054" lon="6.65539">
        <ele>1557</ele>
        <time>2014-04-07T08:30:44.000Z</time>
      </trkpt>
      <trkpt lat="45.77052" lon="6.65539">
        <ele>1557.8000488281</ele>
        <time>2014-04-07T08:30:48.000Z</time>
      </trkpt>
      <trkpt lat="45.77048" lon="6.65537">
        <ele>1559.4000244141</ele>
        <time>2014-04-07T08:30:55.000Z</time>
      </trkpt>
      <trkpt lat="45.77044" lon="6.65535">
        <ele>1561.1999511719</ele>
        <time>2014-04-07T08:31:03.000Z</time>
      </trkpt>
      <trkpt lat="45.77038" lon="6.65534">
        <ele>1563.1999511719</ele>
        <time>2014-04-07T08:31:12.000Z</time>
      </trkpt>
      <trkpt lat="45.77033" lon="6.65535">
        <ele>1565</ele>
        <time>2014-04-07T08:31:20.000Z</time>
      </trkpt>
      <trkpt lat="45.77027" lon="6.65536">
        <ele>1566.8000488281</ele>
        <time>2014-04-07T08:31:30.000Z</time>
      </trkpt>
      <trkpt lat="45.77022" lon="6.65536">
        <ele>1568.8000488281</ele>
        <time>2014-04-07T08:31:39.000Z</time>
      </trkpt>
      <trkpt lat="45.7702" lon="6.65536">
        <ele>1569.5999755859</ele>
        <time>2014-04-07T08:31:44.000Z</time>
      </trkpt>
      <trkpt lat="45.77017" lon="6.65534">
        <ele>1570.8000488281</ele>
        <time>2014-04-07T08:31:50.000Z</time>
      </trkpt>
      <trkpt lat="45.77016" lon="6.65533">
        <ele>1571.5999755859</ele>
        <time>2014-04-07T08:31:54.000Z</time>
      </trkpt>
      <trkpt lat="45.77014" lon="6.65531">
        <ele>1572.5999755859</ele>
        <time>2014-04-07T08:31:59.000Z</time>
      </trkpt>
      <trkpt lat="45.77009" lon="6.65528">
        <ele>1574.8000488281</ele>
        <time>2014-04-07T08:32:09.000Z</time>
      </trkpt>
      <trkpt lat="45.77007" lon="6.65528">
        <ele>1575.5999755859</ele>
        <time>2014-04-07T08:32:45.000Z</time>
      </trkpt>
      <trkpt lat="45.77005" lon="6.65528">
        <ele>1576.4000244141</ele>
        <time>2014-04-07T08:32:57.000Z</time>
      </trkpt>
      <trkpt lat="45.77002" lon="6.65527">
        <ele>1577.5999755859</ele>
        <time>2014-04-07T08:33:03.000Z</time>
      </trkpt>
      <trkpt lat="45.76999" lon="6.65526">
        <ele>1579</ele>
        <time>2014-04-07T08:33:09.000Z</time>
      </trkpt>
      <trkpt lat="45.76997" lon="6.65525">
        <ele>1579.8000488281</ele>
        <time>2014-04-07T08:33:14.000Z</time>
      </trkpt>
      <trkpt lat="45.76995" lon="6.65524">
        <ele>1580.5999755859</ele>
        <time>2014-04-07T08:33:18.000Z</time>
      </trkpt>
      <trkpt lat="45.76992" lon="6.65524">
        <ele>1581.4000244141</ele>
        <time>2014-04-07T08:33:24.000Z</time>
      </trkpt>
      <trkpt lat="45.76991" lon="6.65523">
        <ele>1582</ele>
        <time>2014-04-07T08:33:29.000Z</time>
      </trkpt>
      <trkpt lat="45.76988" lon="6.65522">
        <ele>1583</ele>
        <time>2014-04-07T08:33:35.000Z</time>
      </trkpt>
      <trkpt lat="45.76986" lon="6.65521">
        <ele>1584</ele>
        <time>2014-04-07T08:33:42.000Z</time>
      </trkpt>
      <trkpt lat="45.76986" lon="6.65516">
        <ele>1584.8000488281</ele>
        <time>2014-04-07T08:33:48.000Z</time>
      </trkpt>
      <trkpt lat="45.76987" lon="6.65512">
        <ele>1585.4000244141</ele>
        <time>2014-04-07T08:33:54.000Z</time>
      </trkpt>
      <trkpt lat="45.76988" lon="6.65508">
        <ele>1586</ele>
        <time>2014-04-07T08:34:00.000Z</time>
      </trkpt>
      <trkpt lat="45.76989" lon="6.65506">
        <ele>1586.1999511719</ele>
        <time>2014-04-07T08:34:04.000Z</time>
      </trkpt>
      <trkpt lat="45.7699" lon="6.65503">
        <ele>1586.5999755859</ele>
        <time>2014-04-07T08:34:09.000Z</time>
      </trkpt>
      <trkpt lat="45.76991" lon="6.655">
        <ele>1587</ele>
        <time>2014-04-07T08:34:14.000Z</time>
      </trkpt>
      <trkpt lat="45.76992" lon="6.65496">
        <ele>1587</ele>
        <time>2014-04-07T08:34:19.000Z</time>
      </trkpt>
      <trkpt lat="45.76993" lon="6.65493">
        <ele>1586.8000488281</ele>
        <time>2014-04-07T08:34:24.000Z</time>
      </trkpt>
      <trkpt lat="45.76995" lon="6.6549">
        <ele>1586.4000244141</ele>
        <time>2014-04-07T08:34:33.000Z</time>
      </trkpt>
      <trkpt lat="45.76996" lon="6.65488">
        <ele>1586.1999511719</ele>
        <time>2014-04-07T08:34:38.000Z</time>
      </trkpt>
      <trkpt lat="45.76995" lon="6.65489">
        <ele>1586.4000244141</ele>
        <time>2014-04-07T08:34:44.000Z</time>
      </trkpt>
      <trkpt lat="45.76993" lon="6.65488">
        <ele>1587</ele>
        <time>2014-04-07T08:35:12.000Z</time>
      </trkpt>
      <trkpt lat="45.76993" lon="6.65487">
        <ele>1587.4000244141</ele>
        <time>2014-04-07T08:35:19.000Z</time>
      </trkpt>
      <trkpt lat="45.76994" lon="6.65486">
        <ele>1587</ele>
        <time>2014-04-07T08:35:30.000Z</time>
      </trkpt>
      <trkpt lat="45.76995" lon="6.65486">
        <ele>1586.5999755859</ele>
        <time>2014-04-07T08:35:34.000Z</time>
      </trkpt>
      <trkpt lat="45.76995" lon="6.65487">
        <ele>1586.8000488281</ele>
        <time>2014-04-07T08:35:41.000Z</time>
      </trkpt>
      <trkpt lat="45.76995" lon="6.65488">
        <ele>1586.5999755859</ele>
        <time>2014-04-07T08:36:27.000Z</time>
      </trkpt>
      <trkpt lat="45.76993" lon="6.65492">
        <ele>1586.8000488281</ele>
        <time>2014-04-07T08:37:00.000Z</time>
      </trkpt>
      <trkpt lat="45.7699" lon="6.65491">
        <ele>1588</ele>
        <time>2014-04-07T08:37:10.000Z</time>
      </trkpt>
      <trkpt lat="45.76986" lon="6.6549">
        <ele>1589.5999755859</ele>
        <time>2014-04-07T08:37:18.000Z</time>
      </trkpt>
      <trkpt lat="45.76982" lon="6.65489">
        <ele>1590.8000488281</ele>
        <time>2014-04-07T08:37:25.000Z</time>
      </trkpt>
      <trkpt lat="45.76979" lon="6.65488">
        <ele>1592.1999511719</ele>
        <time>2014-04-07T08:37:34.000Z</time>
      </trkpt>
      <trkpt lat="45.76976" lon="6.65488">
        <ele>1593</ele>
        <time>2014-04-07T08:37:39.000Z</time>
      </trkpt>
      <trkpt lat="45.76974" lon="6.65487">
        <ele>1594</ele>
        <time>2014-04-07T08:37:45.000Z</time>
      </trkpt>
      <trkpt lat="45.76972" lon="6.65486">
        <ele>1594.8000488281</ele>
        <time>2014-04-07T08:37:50.000Z</time>
      </trkpt>
      <trkpt lat="45.76972" lon="6.65485">
        <ele>1594.8000488281</ele>
        <time>2014-04-07T08:37:56.000Z</time>
      </trkpt>
      <trkpt lat="45.76968" lon="6.65485">
        <ele>1596.1999511719</ele>
        <time>2014-04-07T08:38:04.000Z</time>
      </trkpt>
      <trkpt lat="45.76967" lon="6.65485">
        <ele>1596.5999755859</ele>
        <time>2014-04-07T08:38:11.000Z</time>
      </trkpt>
      <trkpt lat="45.76963" lon="6.65484">
        <ele>1598.1999511719</ele>
        <time>2014-04-07T08:38:22.000Z</time>
      </trkpt>
      <trkpt lat="45.76961" lon="6.65485">
        <ele>1598.8000488281</ele>
        <time>2014-04-07T08:38:27.000Z</time>
      </trkpt>
      <trkpt lat="45.76959" lon="6.65486">
        <ele>1599.4000244141</ele>
        <time>2014-04-07T08:38:32.000Z</time>
      </trkpt>
      <trkpt lat="45.76956" lon="6.65488">
        <ele>1600</ele>
        <time>2014-04-07T08:38:37.000Z</time>
      </trkpt>
      <trkpt lat="45.76954" lon="6.65487">
        <ele>1600.8000488281</ele>
        <time>2014-04-07T08:38:43.000Z</time>
      </trkpt>
      <trkpt lat="45.76952" lon="6.65487">
        <ele>1601.4000244141</ele>
        <time>2014-04-07T08:38:56.000Z</time>
      </trkpt>
      <trkpt lat="45.76952" lon="6.65486">
        <ele>1601.8000488281</ele>
        <time>2014-04-07T08:39:10.000Z</time>
      </trkpt>
      <trkpt lat="45.76953" lon="6.65483">
        <ele>1601.8000488281</ele>
        <time>2014-04-07T08:39:17.000Z</time>
      </trkpt>
      <trkpt lat="45.76955" lon="6.65479">
        <ele>1601.8000488281</ele>
        <time>2014-04-07T08:39:59.000Z</time>
      </trkpt>
      <trkpt lat="45.76956" lon="6.65475">
        <ele>1601.8000488281</ele>
        <time>2014-04-07T08:40:05.000Z</time>
      </trkpt>
      <trkpt lat="45.76958" lon="6.65472">
        <ele>1601.5999755859</ele>
        <time>2014-04-07T08:40:17.000Z</time>
      </trkpt>
      <trkpt lat="45.7696" lon="6.6547">
        <ele>1601.1999511719</ele>
        <time>2014-04-07T08:40:23.000Z</time>
      </trkpt>
      <trkpt lat="45.76961" lon="6.65469">
        <ele>1601</ele>
        <time>2014-04-07T08:40:29.000Z</time>
      </trkpt>
      <trkpt lat="45.7696" lon="6.6547">
        <ele>1601.1999511719</ele>
        <time>2014-04-07T08:40:33.000Z</time>
      </trkpt>
      <trkpt lat="45.76957" lon="6.65471">
        <ele>1602.1999511719</ele>
        <time>2014-04-07T08:40:38.000Z</time>
      </trkpt>
      <trkpt lat="45.76956" lon="6.6547">
        <ele>1602.8000488281</ele>
        <time>2014-04-07T08:40:42.000Z</time>
      </trkpt>
      <trkpt lat="45.76961" lon="6.65465">
        <ele>1601.5999755859</ele>
        <time>2014-04-07T08:42:02.000Z</time>
      </trkpt>
      <trkpt lat="45.76961" lon="6.65464">
        <ele>1601.4000244141</ele>
        <time>2014-04-07T08:42:10.000Z</time>
      </trkpt>
      <trkpt lat="45.76961" lon="6.65465">
        <ele>1601.5999755859</ele>
        <time>2014-04-07T08:42:32.000Z</time>
      </trkpt>
      <trkpt lat="45.7696" lon="6.65465">
        <ele>1601.8000488281</ele>
        <time>2014-04-07T08:42:48.000Z</time>
      </trkpt>
      <trkpt lat="45.7696" lon="6.65468">
        <ele>1601.4000244141</ele>
        <time>2014-04-07T08:42:58.000Z</time>
      </trkpt>
      <trkpt lat="45.76959" lon="6.65469">
        <ele>1601.8000488281</ele>
        <time>2014-04-07T08:43:35.000Z</time>
      </trkpt>
      <trkpt lat="45.76958" lon="6.65469">
        <ele>1602.1999511719</ele>
        <time>2014-04-07T08:43:52.000Z</time>
      </trkpt>
      <trkpt lat="45.76959" lon="6.65468">
        <ele>1601.8000488281</ele>
        <time>2014-04-07T08:44:01.000Z</time>
      </trkpt>
      <trkpt lat="45.76958" lon="6.6547">
        <ele>1602.1999511719</ele>
        <time>2014-04-07T08:44:20.000Z</time>
      </trkpt>
      <trkpt lat="45.76959" lon="6.65465">
        <ele>1602</ele>
        <time>2014-04-07T08:44:47.000Z</time>
      </trkpt>
      <trkpt lat="45.76959" lon="6.65463">
        <ele>1602.5999755859</ele>
        <time>2014-04-07T08:46:11.000Z</time>
      </trkpt>
      <trkpt lat="45.76959" lon="6.65464">
        <ele>1602.1999511719</ele>
        <time>2014-04-07T08:46:16.000Z</time>
      </trkpt>
      <trkpt lat="45.76958" lon="6.65469">
        <ele>1602.1999511719</ele>
        <time>2014-04-07T08:47:06.000Z</time>
      </trkpt>
      <trkpt lat="45.76959" lon="6.65466">
        <ele>1602</ele>
        <time>2014-04-07T08:47:11.000Z</time>
      </trkpt>
      <trkpt lat="45.76962" lon="6.65463">
        <ele>1601.5999755859</ele>
        <time>2014-04-07T08:47:16.000Z</time>
      </trkpt>
      <trkpt lat="45.76963" lon="6.6546">
        <ele>1601.1999511719</ele>
        <time>2014-04-07T08:47:22.000Z</time>
      </trkpt>
      <trkpt lat="45.76965" lon="6.65458">
        <ele>1601</ele>
        <time>2014-04-07T08:47:28.000Z</time>
      </trkpt>
      <trkpt lat="45.76965" lon="6.65455">
        <ele>1601</ele>
        <time>2014-04-07T08:47:36.000Z</time>
      </trkpt>
      <trkpt lat="45.76965" lon="6.65456">
        <ele>1601.1999511719</ele>
        <time>2014-04-07T08:47:41.000Z</time>
      </trkpt>
      <trkpt lat="45.76963" lon="6.65455">
        <ele>1602.1999511719</ele>
        <time>2014-04-07T08:47:48.000Z</time>
      </trkpt>
      <trkpt lat="45.76962" lon="6.65454">
        <ele>1602.4000244141</ele>
        <time>2014-04-07T08:47:55.000Z</time>
      </trkpt>
      <trkpt lat="45.76961" lon="6.65454">
        <ele>1602.8000488281</ele>
        <time>2014-04-07T08:48:58.000Z</time>
      </trkpt>
      <trkpt lat="45.76956" lon="6.65456">
        <ele>1604.8000488281</ele>
        <time>2014-04-07T08:49:06.000Z</time>
      </trkpt>
      <trkpt lat="45.76951" lon="6.65457">
        <ele>1606.5999755859</ele>
        <time>2014-04-07T08:49:14.000Z</time>
      </trkpt>
      <trkpt lat="45.76947" lon="6.65455">
        <ele>1608.5999755859</ele>
        <time>2014-04-07T08:49:21.000Z</time>
      </trkpt>
      <trkpt lat="45.76944" lon="6.65455">
        <ele>1609.8000488281</ele>
        <time>2014-04-07T08:49:26.000Z</time>
      </trkpt>
      <trkpt lat="45.76943" lon="6.65454">
        <ele>1610.8000488281</ele>
        <time>2014-04-07T08:49:31.000Z</time>
      </trkpt>
      <trkpt lat="45.76942" lon="6.65452">
        <ele>1611.5999755859</ele>
        <time>2014-04-07T08:49:36.000Z</time>
      </trkpt>
      <trkpt lat="45.76942" lon="6.65449">
        <ele>1611.8000488281</ele>
        <time>2014-04-07T08:49:43.000Z</time>
      </trkpt>
      <trkpt lat="45.76943" lon="6.65447">
        <ele>1611.8000488281</ele>
        <time>2014-04-07T08:50:28.000Z</time>
      </trkpt>
      <trkpt lat="45.76944" lon="6.65446">
        <ele>1611.5999755859</ele>
        <time>2014-04-07T08:51:15.000Z</time>
      </trkpt>
      <trkpt lat="45.76945" lon="6.65443">
        <ele>1611.8000488281</ele>
        <time>2014-04-07T08:51:19.000Z</time>
      </trkpt>
      <trkpt lat="45.76945" lon="6.65439">
        <ele>1612.1999511719</ele>
        <time>2014-04-07T08:51:25.000Z</time>
      </trkpt>
      <trkpt lat="45.76945" lon="6.65436">
        <ele>1612.5999755859</ele>
        <time>2014-04-07T08:51:29.000Z</time>
      </trkpt>
      <trkpt lat="45.76945" lon="6.65434">
        <ele>1613</ele>
        <time>2014-04-07T08:51:34.000Z</time>
      </trkpt>
      <trkpt lat="45.76945" lon="6.65432">
        <ele>1613.1999511719</ele>
        <time>2014-04-07T08:51:39.000Z</time>
      </trkpt>
      <trkpt lat="45.76945" lon="6.65433">
        <ele>1613.1999511719</ele>
        <time>2014-04-07T08:51:45.000Z</time>
      </trkpt>
      <trkpt lat="45.76943" lon="6.65433">
        <ele>1614.4000244141</ele>
        <time>2014-04-07T08:52:06.000Z</time>
      </trkpt>
      <trkpt lat="45.7694" lon="6.65435">
        <ele>1615.4000244141</ele>
        <time>2014-04-07T08:52:13.000Z</time>
      </trkpt>
      <trkpt lat="45.76937" lon="6.65436">
        <ele>1616.4000244141</ele>
        <time>2014-04-07T08:52:18.000Z</time>
      </trkpt>
      <trkpt lat="45.76935" lon="6.65437">
        <ele>1617.1999511719</ele>
        <time>2014-04-07T08:52:22.000Z</time>
      </trkpt>
      <trkpt lat="45.76933" lon="6.65437">
        <ele>1618</ele>
        <time>2014-04-07T08:52:26.000Z</time>
      </trkpt>
      <trkpt lat="45.7693" lon="6.65438">
        <ele>1619</ele>
        <time>2014-04-07T08:52:31.000Z</time>
      </trkpt>
      <trkpt lat="45.76928" lon="6.65439">
        <ele>1619.8000488281</ele>
        <time>2014-04-07T08:52:36.000Z</time>
      </trkpt>
      <trkpt lat="45.76926" lon="6.65439">
        <ele>1620.8000488281</ele>
        <time>2014-04-07T08:52:41.000Z</time>
      </trkpt>
      <trkpt lat="45.76926" lon="6.65437">
        <ele>1621</ele>
        <time>2014-04-07T08:52:47.000Z</time>
      </trkpt>
      <trkpt lat="45.76927" lon="6.65434">
        <ele>1621</ele>
        <time>2014-04-07T08:52:59.000Z</time>
      </trkpt>
      <trkpt lat="45.76929" lon="6.65432">
        <ele>1620.8000488281</ele>
        <time>2014-04-07T08:53:07.000Z</time>
      </trkpt>
      <trkpt lat="45.7693" lon="6.65427">
        <ele>1621</ele>
        <time>2014-04-07T08:53:53.000Z</time>
      </trkpt>
      <trkpt lat="45.76933" lon="6.65421">
        <ele>1621.4000244141</ele>
        <time>2014-04-07T08:54:00.000Z</time>
      </trkpt>
      <trkpt lat="45.76935" lon="6.65414">
        <ele>1620.8000488281</ele>
        <time>2014-04-07T08:54:07.000Z</time>
      </trkpt>
      <trkpt lat="45.76935" lon="6.65408">
        <ele>1619.5999755859</ele>
        <time>2014-04-07T08:54:14.000Z</time>
      </trkpt>
      <trkpt lat="45.76935" lon="6.65404">
        <ele>1619</ele>
        <time>2014-04-07T08:54:19.000Z</time>
      </trkpt>
      <trkpt lat="45.76935" lon="6.65403">
        <ele>1619</ele>
        <time>2014-04-07T08:54:24.000Z</time>
      </trkpt>
      <trkpt lat="45.76935" lon="6.65404">
        <ele>1619.1999511719</ele>
        <time>2014-04-07T08:54:33.000Z</time>
      </trkpt>
      <trkpt lat="45.76934" lon="6.65406">
        <ele>1619.8000488281</ele>
        <time>2014-04-07T08:54:42.000Z</time>
      </trkpt>
      <trkpt lat="45.76934" lon="6.65407">
        <ele>1620.1999511719</ele>
        <time>2014-04-07T08:54:58.000Z</time>
      </trkpt>
      <trkpt lat="45.76931" lon="6.65408">
        <ele>1621.8000488281</ele>
        <time>2014-04-07T08:55:03.000Z</time>
      </trkpt>
      <trkpt lat="45.76929" lon="6.6541">
        <ele>1623.1999511719</ele>
        <time>2014-04-07T08:55:07.000Z</time>
      </trkpt>
      <trkpt lat="45.76926" lon="6.65412">
        <ele>1624.8000488281</ele>
        <time>2014-04-07T08:55:12.000Z</time>
      </trkpt>
      <trkpt lat="45.76924" lon="6.65413">
        <ele>1626</ele>
        <time>2014-04-07T08:55:17.000Z</time>
      </trkpt>
      <trkpt lat="45.76922" lon="6.65415">
        <ele>1627.4000244141</ele>
        <time>2014-04-07T08:55:22.000Z</time>
      </trkpt>
      <trkpt lat="45.76918" lon="6.65418">
        <ele>1629</ele>
        <time>2014-04-07T08:55:29.000Z</time>
      </trkpt>
      <trkpt lat="45.76915" lon="6.6542">
        <ele>1629.5999755859</ele>
        <time>2014-04-07T08:55:34.000Z</time>
      </trkpt>
      <trkpt lat="45.76911" lon="6.65423">
        <ele>1630.1999511719</ele>
        <time>2014-04-07T08:55:42.000Z</time>
      </trkpt>
      <trkpt lat="45.7691" lon="6.65425">
        <ele>1630.5999755859</ele>
        <time>2014-04-07T08:55:49.000Z</time>
      </trkpt>
      <trkpt lat="45.76905" lon="6.65425">
        <ele>1631.8000488281</ele>
        <time>2014-04-07T08:56:00.000Z</time>
      </trkpt>
      <trkpt lat="45.76902" lon="6.65426">
        <ele>1632.8000488281</ele>
        <time>2014-04-07T08:56:06.000Z</time>
      </trkpt>
      <trkpt lat="45.769" lon="6.65425">
        <ele>1633.5999755859</ele>
        <time>2014-04-07T08:56:11.000Z</time>
      </trkpt>
      <trkpt lat="45.76899" lon="6.65425">
        <ele>1634.4000244141</ele>
        <time>2014-04-07T08:56:15.000Z</time>
      </trkpt>
      <trkpt lat="45.76896" lon="6.65425">
        <ele>1635.1999511719</ele>
        <time>2014-04-07T08:56:20.000Z</time>
      </trkpt>
      <trkpt lat="45.76893" lon="6.65426">
        <ele>1636</ele>
        <time>2014-04-07T08:56:24.000Z</time>
      </trkpt>
      <trkpt lat="45.7689" lon="6.65427">
        <ele>1636.8000488281</ele>
        <time>2014-04-07T08:56:31.000Z</time>
      </trkpt>
      <trkpt lat="45.76886" lon="6.65429">
        <ele>1637.8000488281</ele>
        <time>2014-04-07T08:56:38.000Z</time>
      </trkpt>
      <trkpt lat="45.76882" lon="6.65432">
        <ele>1638.5999755859</ele>
        <time>2014-04-07T08:56:44.000Z</time>
      </trkpt>
      <trkpt lat="45.76881" lon="6.65431">
        <ele>1639</ele>
        <time>2014-04-07T08:56:52.000Z</time>
      </trkpt>
      <trkpt lat="45.7688" lon="6.65431">
        <ele>1639.4000244141</ele>
        <time>2014-04-07T08:57:01.000Z</time>
      </trkpt>
      <trkpt lat="45.76877" lon="6.65433">
        <ele>1640</ele>
        <time>2014-04-07T08:57:05.000Z</time>
      </trkpt>
      <trkpt lat="45.76874" lon="6.65434">
        <ele>1640.8000488281</ele>
        <time>2014-04-07T08:57:11.000Z</time>
      </trkpt>
      <trkpt lat="45.76869" lon="6.65439">
        <ele>1641.5999755859</ele>
        <time>2014-04-07T08:57:21.000Z</time>
      </trkpt>
      <trkpt lat="45.76866" lon="6.65442">
        <ele>1642</ele>
        <time>2014-04-07T08:57:28.000Z</time>
      </trkpt>
      <trkpt lat="45.76864" lon="6.65444">
        <ele>1642.4000244141</ele>
        <time>2014-04-07T08:57:33.000Z</time>
      </trkpt>
      <trkpt lat="45.76862" lon="6.65447">
        <ele>1642.5999755859</ele>
        <time>2014-04-07T08:57:38.000Z</time>
      </trkpt>
      <trkpt lat="45.7686" lon="6.6545">
        <ele>1642.8000488281</ele>
        <time>2014-04-07T08:57:44.000Z</time>
      </trkpt>
      <trkpt lat="45.76859" lon="6.65451">
        <ele>1643</ele>
        <time>2014-04-07T08:57:49.000Z</time>
      </trkpt>
      <trkpt lat="45.76857" lon="6.65448">
        <ele>1644.1999511719</ele>
        <time>2014-04-07T08:57:55.000Z</time>
      </trkpt>
      <trkpt lat="45.76855" lon="6.65445">
        <ele>1645.4000244141</ele>
        <time>2014-04-07T08:58:02.000Z</time>
      </trkpt>
      <trkpt lat="45.76853" lon="6.65443">
        <ele>1646.5999755859</ele>
        <time>2014-04-07T08:58:15.000Z</time>
      </trkpt>
      <trkpt lat="45.76851" lon="6.65441">
        <ele>1647.5999755859</ele>
        <time>2014-04-07T08:58:21.000Z</time>
      </trkpt>
      <trkpt lat="45.76848" lon="6.65443">
        <ele>1648.1999511719</ele>
        <time>2014-04-07T08:58:31.000Z</time>
      </trkpt>
      <trkpt lat="45.76847" lon="6.65445">
        <ele>1648.4000244141</ele>
        <time>2014-04-07T08:58:36.000Z</time>
      </trkpt>
      <trkpt lat="45.76845" lon="6.65448">
        <ele>1648.5999755859</ele>
        <time>2014-04-07T08:58:41.000Z</time>
      </trkpt>
      <trkpt lat="45.76845" lon="6.65448">
        <ele>1648.5999755859</ele>
        <time>2014-04-07T08:58:42.000Z</time>
      </trkpt>
      <trkpt lat="45.76843" lon="6.65452">
        <ele>1648.8000488281</ele>
        <time>2014-04-07T08:58:49.000Z</time>
      </trkpt>
      <trkpt lat="45.76841" lon="6.65455">
        <ele>1648.8000488281</ele>
        <time>2014-04-07T08:58:54.000Z</time>
      </trkpt>
      <trkpt lat="45.76839" lon="6.65458">
        <ele>1649</ele>
        <time>2014-04-07T08:59:01.000Z</time>
      </trkpt>
      <trkpt lat="45.76836" lon="6.65462">
        <ele>1649.4000244141</ele>
        <time>2014-04-07T08:59:08.000Z</time>
      </trkpt>
      <trkpt lat="45.76834" lon="6.65464">
        <ele>1649.8000488281</ele>
        <time>2014-04-07T08:59:13.000Z</time>
      </trkpt>
      <trkpt lat="45.76833" lon="6.65466">
        <ele>1650</ele>
        <time>2014-04-07T08:59:18.000Z</time>
      </trkpt>
      <trkpt lat="45.76832" lon="6.65466">
        <ele>1650.1999511719</ele>
        <time>2014-04-07T08:59:29.000Z</time>
      </trkpt>
      <trkpt lat="45.76831" lon="6.65468">
        <ele>1650.5999755859</ele>
        <time>2014-04-07T08:59:35.000Z</time>
      </trkpt>
      <trkpt lat="45.76829" lon="6.65471">
        <ele>1651.1999511719</ele>
        <time>2014-04-07T08:59:42.000Z</time>
      </trkpt>
      <trkpt lat="45.76828" lon="6.65473">
        <ele>1651.5999755859</ele>
        <time>2014-04-07T08:59:49.000Z</time>
      </trkpt>
      <trkpt lat="45.76825" lon="6.65476">
        <ele>1652.1999511719</ele>
        <time>2014-04-07T08:59:57.000Z</time>
      </trkpt>
      <trkpt lat="45.76823" lon="6.65479">
        <ele>1653</ele>
        <time>2014-04-07T09:00:03.000Z</time>
      </trkpt>
      <trkpt lat="45.76821" lon="6.65481">
        <ele>1653.8000488281</ele>
        <time>2014-04-07T09:00:09.000Z</time>
      </trkpt>
      <trkpt lat="45.76819" lon="6.65482">
        <ele>1654.8000488281</ele>
        <time>2014-04-07T09:00:15.000Z</time>
      </trkpt>
      <trkpt lat="45.76816" lon="6.65483">
        <ele>1656</ele>
        <time>2014-04-07T09:00:21.000Z</time>
      </trkpt>
      <trkpt lat="45.76814" lon="6.65483">
        <ele>1657.4000244141</ele>
        <time>2014-04-07T09:00:26.000Z</time>
      </trkpt>
      <trkpt lat="45.76811" lon="6.65483">
        <ele>1658.5999755859</ele>
        <time>2014-04-07T09:00:31.000Z</time>
      </trkpt>
      <trkpt lat="45.76809" lon="6.65483">
        <ele>1659.5999755859</ele>
        <time>2014-04-07T09:00:35.000Z</time>
      </trkpt>
      <trkpt lat="45.76807" lon="6.65483">
        <ele>1660.8000488281</ele>
        <time>2014-04-07T09:00:40.000Z</time>
      </trkpt>
      <trkpt lat="45.76805" lon="6.65484">
        <ele>1661.8000488281</ele>
        <time>2014-04-07T09:00:45.000Z</time>
      </trkpt>
      <trkpt lat="45.76802" lon="6.65485">
        <ele>1663.1999511719</ele>
        <time>2014-04-07T09:00:53.000Z</time>
      </trkpt>
      <trkpt lat="45.768" lon="6.65486">
        <ele>1664.1999511719</ele>
        <time>2014-04-07T09:00:58.000Z</time>
      </trkpt>
      <trkpt lat="45.76797" lon="6.65486">
        <ele>1665.4000244141</ele>
        <time>2014-04-07T09:01:26.000Z</time>
      </trkpt>
      <trkpt lat="45.76794" lon="6.65487">
        <ele>1667.1999511719</ele>
        <time>2014-04-07T09:01:36.000Z</time>
      </trkpt>
      <trkpt lat="45.76789" lon="6.65489">
        <ele>1669.4000244141</ele>
        <time>2014-04-07T09:01:49.000Z</time>
      </trkpt>
      <trkpt lat="45.76781" lon="6.65493">
        <ele>1672.8000488281</ele>
        <time>2014-04-07T09:02:10.000Z</time>
      </trkpt>
      <trkpt lat="45.76779" lon="6.65494">
        <ele>1673.8000488281</ele>
        <time>2014-04-07T09:02:15.000Z</time>
      </trkpt>
      <trkpt lat="45.76777" lon="6.65496">
        <ele>1674.5999755859</ele>
        <time>2014-04-07T09:02:22.000Z</time>
      </trkpt>
      <trkpt lat="45.76774" lon="6.65497">
        <ele>1675.8000488281</ele>
        <time>2014-04-07T09:02:42.000Z</time>
      </trkpt>
      <trkpt lat="45.76772" lon="6.65497">
        <ele>1677</ele>
        <time>2014-04-07T09:02:47.000Z</time>
      </trkpt>
      <trkpt lat="45.7677" lon="6.65498">
        <ele>1678</ele>
        <time>2014-04-07T09:02:52.000Z</time>
      </trkpt>
      <trkpt lat="45.76767" lon="6.65498">
        <ele>1679.5999755859</ele>
        <time>2014-04-07T09:03:00.000Z</time>
      </trkpt>
      <trkpt lat="45.76764" lon="6.65498">
        <ele>1681</ele>
        <time>2014-04-07T09:03:06.000Z</time>
      </trkpt>
      <trkpt lat="45.7676" lon="6.65498">
        <ele>1683</ele>
        <time>2014-04-07T09:03:15.000Z</time>
      </trkpt>
      <trkpt lat="45.76757" lon="6.65498">
        <ele>1684.4000244141</ele>
        <time>2014-04-07T09:03:22.000Z</time>
      </trkpt>
      <trkpt lat="45.76755" lon="6.65499">
        <ele>1685.4000244141</ele>
        <time>2014-04-07T09:03:27.000Z</time>
      </trkpt>
      <trkpt lat="45.76754" lon="6.65499">
        <ele>1686.1999511719</ele>
        <time>2014-04-07T09:03:32.000Z</time>
      </trkpt>
      <trkpt lat="45.76752" lon="6.655">
        <ele>1687.1999511719</ele>
        <time>2014-04-07T09:03:37.000Z</time>
      </trkpt>
      <trkpt lat="45.76748" lon="6.65497">
        <ele>1689.1999511719</ele>
        <time>2014-04-07T09:03:47.000Z</time>
      </trkpt>
      <trkpt lat="45.76747" lon="6.65495">
        <ele>1690</ele>
        <time>2014-04-07T09:03:52.000Z</time>
      </trkpt>
      <trkpt lat="45.76747" lon="6.65492">
        <ele>1690.8000488281</ele>
        <time>2014-04-07T09:03:58.000Z</time>
      </trkpt>
      <trkpt lat="45.76746" lon="6.65489">
        <ele>1691.5999755859</ele>
        <time>2014-04-07T09:04:04.000Z</time>
      </trkpt>
      <trkpt lat="45.76746" lon="6.65484">
        <ele>1692.4000244141</ele>
        <time>2014-04-07T09:04:13.000Z</time>
      </trkpt>
      <trkpt lat="45.76746" lon="6.65481">
        <ele>1693.1999511719</ele>
        <time>2014-04-07T09:04:20.000Z</time>
      </trkpt>
      <trkpt lat="45.76745" lon="6.65474">
        <ele>1694.5999755859</ele>
        <time>2014-04-07T09:04:35.000Z</time>
      </trkpt>
      <trkpt lat="45.76743" lon="6.65469">
        <ele>1696.4000244141</ele>
        <time>2014-04-07T09:04:48.000Z</time>
      </trkpt>
      <trkpt lat="45.76742" lon="6.65466">
        <ele>1697.5999755859</ele>
        <time>2014-04-07T09:04:56.000Z</time>
      </trkpt>
      <trkpt lat="45.7674" lon="6.65463">
        <ele>1698.8000488281</ele>
        <time>2014-04-07T09:05:05.000Z</time>
      </trkpt>
      <trkpt lat="45.76739" lon="6.6546">
        <ele>1700</ele>
        <time>2014-04-07T09:05:13.000Z</time>
      </trkpt>
      <trkpt lat="45.76736" lon="6.65453">
        <ele>1702.5999755859</ele>
        <time>2014-04-07T09:05:30.000Z</time>
      </trkpt>
      <trkpt lat="45.76735" lon="6.65452">
        <ele>1703</ele>
        <time>2014-04-07T09:05:34.000Z</time>
      </trkpt>
      <trkpt lat="45.76734" lon="6.65448">
        <ele>1704.1999511719</ele>
        <time>2014-04-07T09:05:42.000Z</time>
      </trkpt>
      <trkpt lat="45.76733" lon="6.65444">
        <ele>1705.1999511719</ele>
        <time>2014-04-07T09:05:50.000Z</time>
      </trkpt>
      <trkpt lat="45.76731" lon="6.65441">
        <ele>1706.4000244141</ele>
        <time>2014-04-07T09:05:57.000Z</time>
      </trkpt>
      <trkpt lat="45.76728" lon="6.65431">
        <ele>1709.4000244141</ele>
        <time>2014-04-07T09:06:23.000Z</time>
      </trkpt>
      <trkpt lat="45.76725" lon="6.65421">
        <ele>1712.5999755859</ele>
        <time>2014-04-07T09:06:49.000Z</time>
      </trkpt>
      <trkpt lat="45.76724" lon="6.65417">
        <ele>1713.5999755859</ele>
        <time>2014-04-07T09:06:57.000Z</time>
      </trkpt>
      <trkpt lat="45.76723" lon="6.65414">
        <ele>1714</ele>
        <time>2014-04-07T09:07:02.000Z</time>
      </trkpt>
      <trkpt lat="45.76722" lon="6.65413">
        <ele>1714.4000244141</ele>
        <time>2014-04-07T09:07:08.000Z</time>
      </trkpt>
      <trkpt lat="45.76721" lon="6.65416">
        <ele>1714.8000488281</ele>
        <time>2014-04-07T09:08:34.000Z</time>
      </trkpt>
      <trkpt lat="45.76719" lon="6.65416">
        <ele>1715.8000488281</ele>
        <time>2014-04-07T09:09:03.000Z</time>
      </trkpt>
      <trkpt lat="45.76717" lon="6.65417">
        <ele>1716.5999755859</ele>
        <time>2014-04-07T09:09:08.000Z</time>
      </trkpt>
      <trkpt lat="45.76715" lon="6.65417">
        <ele>1717.1999511719</ele>
        <time>2014-04-07T09:09:13.000Z</time>
      </trkpt>
      <trkpt lat="45.76712" lon="6.65418">
        <ele>1718.1999511719</ele>
        <time>2014-04-07T09:09:19.000Z</time>
      </trkpt>
      <trkpt lat="45.7671" lon="6.65419">
        <ele>1719</ele>
        <time>2014-04-07T09:09:24.000Z</time>
      </trkpt>
      <trkpt lat="45.76708" lon="6.6542">
        <ele>1719.5999755859</ele>
        <time>2014-04-07T09:09:29.000Z</time>
      </trkpt>
      <trkpt lat="45.76704" lon="6.65421">
        <ele>1721</ele>
        <time>2014-04-07T09:09:39.000Z</time>
      </trkpt>
      <trkpt lat="45.767" lon="6.65423">
        <ele>1722.5999755859</ele>
        <time>2014-04-07T09:09:50.000Z</time>
      </trkpt>
      <trkpt lat="45.76698" lon="6.65421">
        <ele>1723.5999755859</ele>
        <time>2014-04-07T09:09:58.000Z</time>
      </trkpt>
      <trkpt lat="45.76698" lon="6.65418">
        <ele>1724.1999511719</ele>
        <time>2014-04-07T09:10:03.000Z</time>
      </trkpt>
      <trkpt lat="45.76697" lon="6.65414">
        <ele>1724.4000244141</ele>
        <time>2014-04-07T09:10:08.000Z</time>
      </trkpt>
      <trkpt lat="45.76697" lon="6.6541">
        <ele>1724.5999755859</ele>
        <time>2014-04-07T09:10:14.000Z</time>
      </trkpt>
      <trkpt lat="45.76697" lon="6.65407">
        <ele>1724.5999755859</ele>
        <time>2014-04-07T09:10:20.000Z</time>
      </trkpt>
      <trkpt lat="45.76698" lon="6.65403">
        <ele>1724.5999755859</ele>
        <time>2014-04-07T09:10:26.000Z</time>
      </trkpt>
      <trkpt lat="45.76698" lon="6.65398">
        <ele>1724.5999755859</ele>
        <time>2014-04-07T09:10:34.000Z</time>
      </trkpt>
      <trkpt lat="45.76698" lon="6.65394">
        <ele>1724.8000488281</ele>
        <time>2014-04-07T09:10:39.000Z</time>
      </trkpt>
      <trkpt lat="45.76697" lon="6.65391">
        <ele>1725.1999511719</ele>
        <time>2014-04-07T09:10:45.000Z</time>
      </trkpt>
      <trkpt lat="45.76696" lon="6.65389">
        <ele>1725.5999755859</ele>
        <time>2014-04-07T09:10:50.000Z</time>
      </trkpt>
      <trkpt lat="45.76694" lon="6.65389">
        <ele>1726.5999755859</ele>
        <time>2014-04-07T09:10:57.000Z</time>
      </trkpt>
      <trkpt lat="45.76691" lon="6.65391">
        <ele>1727.5999755859</ele>
        <time>2014-04-07T09:11:04.000Z</time>
      </trkpt>
      <trkpt lat="45.76688" lon="6.65393">
        <ele>1729.1999511719</ele>
        <time>2014-04-07T09:11:13.000Z</time>
      </trkpt>
      <trkpt lat="45.76685" lon="6.65395">
        <ele>1730.1999511719</ele>
        <time>2014-04-07T09:11:19.000Z</time>
      </trkpt>
      <trkpt lat="45.76683" lon="6.65395">
        <ele>1731</ele>
        <time>2014-04-07T09:11:24.000Z</time>
      </trkpt>
      <trkpt lat="45.76681" lon="6.65395">
        <ele>1731.8000488281</ele>
        <time>2014-04-07T09:11:29.000Z</time>
      </trkpt>
      <trkpt lat="45.76679" lon="6.65395">
        <ele>1732.8000488281</ele>
        <time>2014-04-07T09:11:34.000Z</time>
      </trkpt>
      <trkpt lat="45.76677" lon="6.65395">
        <ele>1733.5999755859</ele>
        <time>2014-04-07T09:11:39.000Z</time>
      </trkpt>
      <trkpt lat="45.76674" lon="6.65394">
        <ele>1734.8000488281</ele>
        <time>2014-04-07T09:11:45.000Z</time>
      </trkpt>
      <trkpt lat="45.7667" lon="6.65393">
        <ele>1736.8000488281</ele>
        <time>2014-04-07T09:11:54.000Z</time>
      </trkpt>
      <trkpt lat="45.76667" lon="6.65391">
        <ele>1738</ele>
        <time>2014-04-07T09:12:00.000Z</time>
      </trkpt>
      <trkpt lat="45.76665" lon="6.65391">
        <ele>1738.8000488281</ele>
        <time>2014-04-07T09:12:05.000Z</time>
      </trkpt>
      <trkpt lat="45.76661" lon="6.6539">
        <ele>1739.8000488281</ele>
        <time>2014-04-07T09:12:13.000Z</time>
      </trkpt>
      <trkpt lat="45.76659" lon="6.65389">
        <ele>1740.4000244141</ele>
        <time>2014-04-07T09:12:18.000Z</time>
      </trkpt>
      <trkpt lat="45.76657" lon="6.65389">
        <ele>1741</ele>
        <time>2014-04-07T09:12:23.000Z</time>
      </trkpt>
      <trkpt lat="45.76654" lon="6.65388">
        <ele>1742</ele>
        <time>2014-04-07T09:12:31.000Z</time>
      </trkpt>
      <trkpt lat="45.76651" lon="6.65388">
        <ele>1742.5999755859</ele>
        <time>2014-04-07T09:12:36.000Z</time>
      </trkpt>
      <trkpt lat="45.76649" lon="6.65387">
        <ele>1743.1999511719</ele>
        <time>2014-04-07T09:12:42.000Z</time>
      </trkpt>
      <trkpt lat="45.76647" lon="6.65387">
        <ele>1744</ele>
        <time>2014-04-07T09:12:47.000Z</time>
      </trkpt>
      <trkpt lat="45.76643" lon="6.65386">
        <ele>1745</ele>
        <time>2014-04-07T09:12:55.000Z</time>
      </trkpt>
      <trkpt lat="45.7664" lon="6.65386">
        <ele>1746</ele>
        <time>2014-04-07T09:13:02.000Z</time>
      </trkpt>
      <trkpt lat="45.76637" lon="6.65386">
        <ele>1746.5999755859</ele>
        <time>2014-04-07T09:13:07.000Z</time>
      </trkpt>
      <trkpt lat="45.76634" lon="6.65385">
        <ele>1747.5999755859</ele>
        <time>2014-04-07T09:13:15.000Z</time>
      </trkpt>
      <trkpt lat="45.76631" lon="6.65384">
        <ele>1748.1999511719</ele>
        <time>2014-04-07T09:13:20.000Z</time>
      </trkpt>
      <trkpt lat="45.76629" lon="6.65383">
        <ele>1749</ele>
        <time>2014-04-07T09:13:26.000Z</time>
      </trkpt>
      <trkpt lat="45.76626" lon="6.65382">
        <ele>1749.8000488281</ele>
        <time>2014-04-07T09:13:32.000Z</time>
      </trkpt>
      <trkpt lat="45.76624" lon="6.65381">
        <ele>1750.4000244141</ele>
        <time>2014-04-07T09:13:37.000Z</time>
      </trkpt>
      <trkpt lat="45.76621" lon="6.6538">
        <ele>1751.1999511719</ele>
        <time>2014-04-07T09:13:43.000Z</time>
      </trkpt>
      <trkpt lat="45.76619" lon="6.65379">
        <ele>1752</ele>
        <time>2014-04-07T09:13:48.000Z</time>
      </trkpt>
      <trkpt lat="45.76617" lon="6.65378">
        <ele>1752.5999755859</ele>
        <time>2014-04-07T09:13:54.000Z</time>
      </trkpt>
      <trkpt lat="45.76615" lon="6.65377">
        <ele>1753.1999511719</ele>
        <time>2014-04-07T09:13:59.000Z</time>
      </trkpt>
      <trkpt lat="45.76613" lon="6.65376">
        <ele>1753.8000488281</ele>
        <time>2014-04-07T09:14:04.000Z</time>
      </trkpt>
      <trkpt lat="45.7661" lon="6.65375">
        <ele>1754.8000488281</ele>
        <time>2014-04-07T09:14:11.000Z</time>
      </trkpt>
      <trkpt lat="45.76608" lon="6.65374">
        <ele>1755.4000244141</ele>
        <time>2014-04-07T09:14:16.000Z</time>
      </trkpt>
      <trkpt lat="45.76605" lon="6.65373">
        <ele>1756.1999511719</ele>
        <time>2014-04-07T09:14:22.000Z</time>
      </trkpt>
      <trkpt lat="45.76603" lon="6.65371">
        <ele>1756.8000488281</ele>
        <time>2014-04-07T09:14:27.000Z</time>
      </trkpt>
      <trkpt lat="45.766" lon="6.6537">
        <ele>1757.5999755859</ele>
        <time>2014-04-07T09:14:34.000Z</time>
      </trkpt>
      <trkpt lat="45.76598" lon="6.65369">
        <ele>1758.4000244141</ele>
        <time>2014-04-07T09:14:39.000Z</time>
      </trkpt>
      <trkpt lat="45.76595" lon="6.65368">
        <ele>1759</ele>
        <time>2014-04-07T09:14:44.000Z</time>
      </trkpt>
      <trkpt lat="45.76592" lon="6.65367">
        <ele>1760</ele>
        <time>2014-04-07T09:14:51.000Z</time>
      </trkpt>
      <trkpt lat="45.7659" lon="6.65366">
        <ele>1760.5999755859</ele>
        <time>2014-04-07T09:14:56.000Z</time>
      </trkpt>
      <trkpt lat="45.76588" lon="6.65365">
        <ele>1761.1999511719</ele>
        <time>2014-04-07T09:15:01.000Z</time>
      </trkpt>
      <trkpt lat="45.76586" lon="6.65363">
        <ele>1761.8000488281</ele>
        <time>2014-04-07T09:15:06.000Z</time>
      </trkpt>
      <trkpt lat="45.76584" lon="6.65362">
        <ele>1762.5999755859</ele>
        <time>2014-04-07T09:15:11.000Z</time>
      </trkpt>
      <trkpt lat="45.76581" lon="6.6536">
        <ele>1763.1999511719</ele>
        <time>2014-04-07T09:15:17.000Z</time>
      </trkpt>
      <trkpt lat="45.76579" lon="6.65358">
        <ele>1763.8000488281</ele>
        <time>2014-04-07T09:15:21.000Z</time>
      </trkpt>
      <trkpt lat="45.76578" lon="6.65356">
        <ele>1764.1999511719</ele>
        <time>2014-04-07T09:15:26.000Z</time>
      </trkpt>
      <trkpt lat="45.76575" lon="6.65354">
        <ele>1764.8000488281</ele>
        <time>2014-04-07T09:15:32.000Z</time>
      </trkpt>
      <trkpt lat="45.76574" lon="6.65352">
        <ele>1765.1999511719</ele>
        <time>2014-04-07T09:15:36.000Z</time>
      </trkpt>
      <trkpt lat="45.76572" lon="6.6535">
        <ele>1765.8000488281</ele>
        <time>2014-04-07T09:15:41.000Z</time>
      </trkpt>
      <trkpt lat="45.76571" lon="6.65348">
        <ele>1766.1999511719</ele>
        <time>2014-04-07T09:15:46.000Z</time>
      </trkpt>
      <trkpt lat="45.76569" lon="6.65346">
        <ele>1766.5999755859</ele>
        <time>2014-04-07T09:15:51.000Z</time>
      </trkpt>
      <trkpt lat="45.76567" lon="6.65342">
        <ele>1767.1999511719</ele>
        <time>2014-04-07T09:16:06.000Z</time>
      </trkpt>
      <trkpt lat="45.76566" lon="6.6534">
        <ele>1767.5999755859</ele>
        <time>2014-04-07T09:16:11.000Z</time>
      </trkpt>
      <trkpt lat="45.76564" lon="6.65337">
        <ele>1768</ele>
        <time>2014-04-07T09:16:16.000Z</time>
      </trkpt>
      <trkpt lat="45.76563" lon="6.65334">
        <ele>1768.4000244141</ele>
        <time>2014-04-07T09:16:21.000Z</time>
      </trkpt>
      <trkpt lat="45.76561" lon="6.6533">
        <ele>1768.5999755859</ele>
        <time>2014-04-07T09:16:29.000Z</time>
      </trkpt>
      <trkpt lat="45.7656" lon="6.65328">
        <ele>1768.8000488281</ele>
        <time>2014-04-07T09:16:34.000Z</time>
      </trkpt>
      <trkpt lat="45.76558" lon="6.65324">
        <ele>1769</ele>
        <time>2014-04-07T09:16:41.000Z</time>
      </trkpt>
      <trkpt lat="45.76558" lon="6.65323">
        <ele>1769</ele>
        <time>2014-04-07T09:16:46.000Z</time>
      </trkpt>
      <trkpt lat="45.76557" lon="6.65321">
        <ele>1769.1999511719</ele>
        <time>2014-04-07T09:17:11.000Z</time>
      </trkpt>
      <trkpt lat="45.76556" lon="6.65321">
        <ele>1769.4000244141</ele>
        <time>2014-04-07T09:17:20.000Z</time>
      </trkpt>
      <trkpt lat="45.76556" lon="6.6532">
        <ele>1769.1999511719</ele>
        <time>2014-04-07T09:17:37.000Z</time>
      </trkpt>
      <trkpt lat="45.76556" lon="6.65321">
        <ele>1769.4000244141</ele>
        <time>2014-04-07T09:19:20.000Z</time>
      </trkpt>
      <trkpt lat="45.76555" lon="6.6532">
        <ele>1769.5999755859</ele>
        <time>2014-04-07T09:19:30.000Z</time>
      </trkpt>
      <trkpt lat="45.76555" lon="6.65319">
        <ele>1769.4000244141</ele>
        <time>2014-04-07T09:20:32.000Z</time>
      </trkpt>
      <trkpt lat="45.76556" lon="6.6532">
        <ele>1769.1999511719</ele>
        <time>2014-04-07T09:21:27.000Z</time>
      </trkpt>
      <trkpt lat="45.76556" lon="6.6532">
        <ele>1769.1999511719</ele>
        <time>2014-04-07T09:22:25.000Z</time>
      </trkpt>
      <trkpt lat="45.76556" lon="6.65321">
        <ele>1769.1999511719</ele>
        <time>2014-04-07T09:22:37.000Z</time>
      </trkpt>
      <trkpt lat="45.76554" lon="6.6532">
        <ele>1769.5999755859</ele>
        <time>2014-04-07T09:23:51.000Z</time>
      </trkpt>
      <trkpt lat="45.76551" lon="6.65319">
        <ele>1770.1999511719</ele>
        <time>2014-04-07T09:23:57.000Z</time>
      </trkpt>
      <trkpt lat="45.7655" lon="6.65318">
        <ele>1770.5999755859</ele>
        <time>2014-04-07T09:24:01.000Z</time>
      </trkpt>
      <trkpt lat="45.76547" lon="6.65318">
        <ele>1771</ele>
        <time>2014-04-07T09:24:05.000Z</time>
      </trkpt>
      <trkpt lat="45.76542" lon="6.65317">
        <ele>1772.1999511719</ele>
        <time>2014-04-07T09:24:15.000Z</time>
      </trkpt>
      <trkpt lat="45.76537" lon="6.65317">
        <ele>1773.1999511719</ele>
        <time>2014-04-07T09:24:25.000Z</time>
      </trkpt>
      <trkpt lat="45.76532" lon="6.65317">
        <ele>1774.4000244141</ele>
        <time>2014-04-07T09:24:35.000Z</time>
      </trkpt>
      <trkpt lat="45.76527" lon="6.65317">
        <ele>1775.4000244141</ele>
        <time>2014-04-07T09:24:43.000Z</time>
      </trkpt>
      <trkpt lat="45.76521" lon="6.65317">
        <ele>1776.5999755859</ele>
        <time>2014-04-07T09:24:51.000Z</time>
      </trkpt>
      <trkpt lat="45.76517" lon="6.65317">
        <ele>1777.4000244141</ele>
        <time>2014-04-07T09:24:57.000Z</time>
      </trkpt>
      <trkpt lat="45.76512" lon="6.65317">
        <ele>1778.4000244141</ele>
        <time>2014-04-07T09:25:05.000Z</time>
      </trkpt>
      <trkpt lat="45.76507" lon="6.65317">
        <ele>1779.5999755859</ele>
        <time>2014-04-07T09:25:13.000Z</time>
      </trkpt>
      <trkpt lat="45.76501" lon="6.65318">
        <ele>1780.8000488281</ele>
        <time>2014-04-07T09:25:21.000Z</time>
      </trkpt>
      <trkpt lat="45.76494" lon="6.65319">
        <ele>1782.5999755859</ele>
        <time>2014-04-07T09:25:30.000Z</time>
      </trkpt>
      <trkpt lat="45.76488" lon="6.6532">
        <ele>1784.5999755859</ele>
        <time>2014-04-07T09:25:40.000Z</time>
      </trkpt>
      <trkpt lat="45.76481" lon="6.65321">
        <ele>1786.5999755859</ele>
        <time>2014-04-07T09:25:51.000Z</time>
      </trkpt>
      <trkpt lat="45.76476" lon="6.65323">
        <ele>1788.4000244141</ele>
        <time>2014-04-07T09:26:00.000Z</time>
      </trkpt>
      <trkpt lat="45.76471" lon="6.65325">
        <ele>1789.8000488281</ele>
        <time>2014-04-07T09:26:07.000Z</time>
      </trkpt>
      <trkpt lat="45.76466" lon="6.65325">
        <ele>1791.4000244141</ele>
        <time>2014-04-07T09:26:16.000Z</time>
      </trkpt>
      <trkpt lat="45.76462" lon="6.65326">
        <ele>1792.4000244141</ele>
        <time>2014-04-07T09:26:23.000Z</time>
      </trkpt>
      <trkpt lat="45.76458" lon="6.65327">
        <ele>1793.8000488281</ele>
        <time>2014-04-07T09:26:32.000Z</time>
      </trkpt>
      <trkpt lat="45.76455" lon="6.65327">
        <ele>1794.8000488281</ele>
        <time>2014-04-07T09:26:38.000Z</time>
      </trkpt>
      <trkpt lat="45.76453" lon="6.65327">
        <ele>1795.4000244141</ele>
        <time>2014-04-07T09:26:43.000Z</time>
      </trkpt>
      <trkpt lat="45.7645" lon="6.65326">
        <ele>1796.1999511719</ele>
        <time>2014-04-07T09:26:49.000Z</time>
      </trkpt>
      <trkpt lat="45.76447" lon="6.65326">
        <ele>1796.8000488281</ele>
        <time>2014-04-07T09:26:54.000Z</time>
      </trkpt>
      <trkpt lat="45.76444" lon="6.65325">
        <ele>1797.8000488281</ele>
        <time>2014-04-07T09:27:00.000Z</time>
      </trkpt>
      <trkpt lat="45.76441" lon="6.65324">
        <ele>1798.4000244141</ele>
        <time>2014-04-07T09:27:06.000Z</time>
      </trkpt>
      <trkpt lat="45.76438" lon="6.65322">
        <ele>1799.1999511719</ele>
        <time>2014-04-07T09:27:13.000Z</time>
      </trkpt>
      <trkpt lat="45.76434" lon="6.6532">
        <ele>1799.8000488281</ele>
        <time>2014-04-07T09:27:21.000Z</time>
      </trkpt>
      <trkpt lat="45.76431" lon="6.65318">
        <ele>1800.1999511719</ele>
        <time>2014-04-07T09:27:26.000Z</time>
      </trkpt>
      <trkpt lat="45.76429" lon="6.65317">
        <ele>1800.5999755859</ele>
        <time>2014-04-07T09:27:31.000Z</time>
      </trkpt>
      <trkpt lat="45.76427" lon="6.65316">
        <ele>1801.1999511719</ele>
        <time>2014-04-07T09:27:36.000Z</time>
      </trkpt>
      <trkpt lat="45.76425" lon="6.65315">
        <ele>1801.5999755859</ele>
        <time>2014-04-07T09:27:41.000Z</time>
      </trkpt>
      <trkpt lat="45.76423" lon="6.65314">
        <ele>1802</ele>
        <time>2014-04-07T09:27:46.000Z</time>
      </trkpt>
      <trkpt lat="45.76421" lon="6.65314">
        <ele>1802.5999755859</ele>
        <time>2014-04-07T09:27:52.000Z</time>
      </trkpt>
      <trkpt lat="45.76418" lon="6.65313">
        <ele>1803.1999511719</ele>
        <time>2014-04-07T09:27:57.000Z</time>
      </trkpt>
      <trkpt lat="45.76416" lon="6.65313">
        <ele>1803.8000488281</ele>
        <time>2014-04-07T09:28:03.000Z</time>
      </trkpt>
      <trkpt lat="45.76414" lon="6.65313">
        <ele>1804.4000244141</ele>
        <time>2014-04-07T09:28:08.000Z</time>
      </trkpt>
      <trkpt lat="45.76411" lon="6.65313">
        <ele>1805.1999511719</ele>
        <time>2014-04-07T09:28:15.000Z</time>
      </trkpt>
      <trkpt lat="45.76408" lon="6.65314">
        <ele>1805.8000488281</ele>
        <time>2014-04-07T09:28:23.000Z</time>
      </trkpt>
      <trkpt lat="45.76406" lon="6.65314">
        <ele>1806.5999755859</ele>
        <time>2014-04-07T09:28:29.000Z</time>
      </trkpt>
      <trkpt lat="45.76403" lon="6.65315">
        <ele>1807.4000244141</ele>
        <time>2014-04-07T09:28:37.000Z</time>
      </trkpt>
      <trkpt lat="45.764" lon="6.65316">
        <ele>1808</ele>
        <time>2014-04-07T09:28:42.000Z</time>
      </trkpt>
      <trkpt lat="45.76399" lon="6.65316">
        <ele>1808.5999755859</ele>
        <time>2014-04-07T09:28:47.000Z</time>
      </trkpt>
      <trkpt lat="45.76394" lon="6.65318">
        <ele>1810</ele>
        <time>2014-04-07T09:28:58.000Z</time>
      </trkpt>
      <trkpt lat="45.76392" lon="6.65318">
        <ele>1810.8000488281</ele>
        <time>2014-04-07T09:29:04.000Z</time>
      </trkpt>
      <trkpt lat="45.76389" lon="6.65319">
        <ele>1811.4000244141</ele>
        <time>2014-04-07T09:29:09.000Z</time>
      </trkpt>
      <trkpt lat="45.76383" lon="6.6532">
        <ele>1813.1999511719</ele>
        <time>2014-04-07T09:29:21.000Z</time>
      </trkpt>
      <trkpt lat="45.76379" lon="6.65321">
        <ele>1814.5999755859</ele>
        <time>2014-04-07T09:29:29.000Z</time>
      </trkpt>
      <trkpt lat="45.76375" lon="6.65321">
        <ele>1815.4000244141</ele>
        <time>2014-04-07T09:29:37.000Z</time>
      </trkpt>
      <trkpt lat="45.76372" lon="6.6532">
        <ele>1816.4000244141</ele>
        <time>2014-04-07T09:29:44.000Z</time>
      </trkpt>
      <trkpt lat="45.76369" lon="6.6532">
        <ele>1816.8000488281</ele>
        <time>2014-04-07T09:29:49.000Z</time>
      </trkpt>
      <trkpt lat="45.76367" lon="6.6532">
        <ele>1817.4000244141</ele>
        <time>2014-04-07T09:29:54.000Z</time>
      </trkpt>
      <trkpt lat="45.76365" lon="6.6532">
        <ele>1818.1999511719</ele>
        <time>2014-04-07T09:29:59.000Z</time>
      </trkpt>
      <trkpt lat="45.76363" lon="6.65321">
        <ele>1818.5999755859</ele>
        <time>2014-04-07T09:30:03.000Z</time>
      </trkpt>
      <trkpt lat="45.7636" lon="6.65321">
        <ele>1819.5999755859</ele>
        <time>2014-04-07T09:30:09.000Z</time>
      </trkpt>
      <trkpt lat="45.76358" lon="6.65321">
        <ele>1820.1999511719</ele>
        <time>2014-04-07T09:30:14.000Z</time>
      </trkpt>
      <trkpt lat="45.76355" lon="6.65322">
        <ele>1820.8000488281</ele>
        <time>2014-04-07T09:30:19.000Z</time>
      </trkpt>
      <trkpt lat="45.76353" lon="6.65323">
        <ele>1821.8000488281</ele>
        <time>2014-04-07T09:30:29.000Z</time>
      </trkpt>
      <trkpt lat="45.7635" lon="6.65324">
        <ele>1822.8000488281</ele>
        <time>2014-04-07T09:30:34.000Z</time>
      </trkpt>
      <trkpt lat="45.76346" lon="6.65324">
        <ele>1824</ele>
        <time>2014-04-07T09:30:41.000Z</time>
      </trkpt>
      <trkpt lat="45.76344" lon="6.65325">
        <ele>1824.5999755859</ele>
        <time>2014-04-07T09:30:46.000Z</time>
      </trkpt>
      <trkpt lat="45.76341" lon="6.65325">
        <ele>1825.5999755859</ele>
        <time>2014-04-07T09:30:52.000Z</time>
      </trkpt>
      <trkpt lat="45.76337" lon="6.65326">
        <ele>1826.5999755859</ele>
        <time>2014-04-07T09:30:59.000Z</time>
      </trkpt>
      <trkpt lat="45.76335" lon="6.65326">
        <ele>1827.4000244141</ele>
        <time>2014-04-07T09:31:05.000Z</time>
      </trkpt>
      <trkpt lat="45.76333" lon="6.65327">
        <ele>1828</ele>
        <time>2014-04-07T09:31:10.000Z</time>
      </trkpt>
      <trkpt lat="45.76331" lon="6.65327">
        <ele>1828.4000244141</ele>
        <time>2014-04-07T09:31:15.000Z</time>
      </trkpt>
      <trkpt lat="45.76328" lon="6.65328">
        <ele>1828.5999755859</ele>
        <time>2014-04-07T09:31:20.000Z</time>
      </trkpt>
      <trkpt lat="45.76326" lon="6.65329">
        <ele>1829</ele>
        <time>2014-04-07T09:31:25.000Z</time>
      </trkpt>
      <trkpt lat="45.76324" lon="6.65329">
        <ele>1829.1999511719</ele>
        <time>2014-04-07T09:31:30.000Z</time>
      </trkpt>
      <trkpt lat="45.76322" lon="6.6533">
        <ele>1829.5999755859</ele>
        <time>2014-04-07T09:31:35.000Z</time>
      </trkpt>
      <trkpt lat="45.7632" lon="6.65331">
        <ele>1830</ele>
        <time>2014-04-07T09:31:41.000Z</time>
      </trkpt>
      <trkpt lat="45.76318" lon="6.65333">
        <ele>1830.5999755859</ele>
        <time>2014-04-07T09:31:48.000Z</time>
      </trkpt>
      <trkpt lat="45.76316" lon="6.65334">
        <ele>1831.1999511719</ele>
        <time>2014-04-07T09:31:54.000Z</time>
      </trkpt>
      <trkpt lat="45.76314" lon="6.65334">
        <ele>1831.4000244141</ele>
        <time>2014-04-07T09:31:59.000Z</time>
      </trkpt>
      <trkpt lat="45.76311" lon="6.65335">
        <ele>1831.8000488281</ele>
        <time>2014-04-07T09:32:05.000Z</time>
      </trkpt>
      <trkpt lat="45.76309" lon="6.65336">
        <ele>1832.1999511719</ele>
        <time>2014-04-07T09:32:10.000Z</time>
      </trkpt>
      <trkpt lat="45.76307" lon="6.65336">
        <ele>1832.5999755859</ele>
        <time>2014-04-07T09:32:15.000Z</time>
      </trkpt>
      <trkpt lat="45.76305" lon="6.65337">
        <ele>1833</ele>
        <time>2014-04-07T09:32:21.000Z</time>
      </trkpt>
      <trkpt lat="45.76303" lon="6.65338">
        <ele>1833.4000244141</ele>
        <time>2014-04-07T09:32:26.000Z</time>
      </trkpt>
      <trkpt lat="45.76301" lon="6.65339">
        <ele>1833.8000488281</ele>
        <time>2014-04-07T09:32:31.000Z</time>
      </trkpt>
      <trkpt lat="45.763" lon="6.65339">
        <ele>1834.1999511719</ele>
        <time>2014-04-07T09:32:37.000Z</time>
      </trkpt>
      <trkpt lat="45.76299" lon="6.6534">
        <ele>1834.4000244141</ele>
        <time>2014-04-07T09:32:44.000Z</time>
      </trkpt>
      <trkpt lat="45.76296" lon="6.65342">
        <ele>1835.1999511719</ele>
        <time>2014-04-07T09:32:50.000Z</time>
      </trkpt>
      <trkpt lat="45.76294" lon="6.65343">
        <ele>1835.8000488281</ele>
        <time>2014-04-07T09:32:55.000Z</time>
      </trkpt>
      <trkpt lat="45.76291" lon="6.65345">
        <ele>1836.5999755859</ele>
        <time>2014-04-07T09:33:01.000Z</time>
      </trkpt>
      <trkpt lat="45.7629" lon="6.65347">
        <ele>1837.4000244141</ele>
        <time>2014-04-07T09:33:05.000Z</time>
      </trkpt>
      <trkpt lat="45.76291" lon="6.65349">
        <ele>1838.1999511719</ele>
        <time>2014-04-07T09:33:10.000Z</time>
      </trkpt>
      <trkpt lat="45.76293" lon="6.65353">
        <ele>1839.5999755859</ele>
        <time>2014-04-07T09:33:17.000Z</time>
      </trkpt>
      <trkpt lat="45.76294" lon="6.65356">
        <ele>1840.5999755859</ele>
        <time>2014-04-07T09:33:22.000Z</time>
      </trkpt>
      <trkpt lat="45.76297" lon="6.6536">
        <ele>1841.5999755859</ele>
        <time>2014-04-07T09:33:29.000Z</time>
      </trkpt>
      <trkpt lat="45.763" lon="6.65364">
        <ele>1842.8000488281</ele>
        <time>2014-04-07T09:33:37.000Z</time>
      </trkpt>
      <trkpt lat="45.76303" lon="6.65369">
        <ele>1844.1999511719</ele>
        <time>2014-04-07T09:33:47.000Z</time>
      </trkpt>
      <trkpt lat="45.76304" lon="6.65372">
        <ele>1845</ele>
        <time>2014-04-07T09:33:52.000Z</time>
      </trkpt>
      <trkpt lat="45.76306" lon="6.65375">
        <ele>1845.8000488281</ele>
        <time>2014-04-07T09:33:58.000Z</time>
      </trkpt>
      <trkpt lat="45.76307" lon="6.65377">
        <ele>1846.4000244141</ele>
        <time>2014-04-07T09:34:02.000Z</time>
      </trkpt>
      <trkpt lat="45.76308" lon="6.65379">
        <ele>1847</ele>
        <time>2014-04-07T09:34:06.000Z</time>
      </trkpt>
      <trkpt lat="45.7631" lon="6.65383">
        <ele>1848</ele>
        <time>2014-04-07T09:34:12.000Z</time>
      </trkpt>
      <trkpt lat="45.76311" lon="6.65386">
        <ele>1848.5999755859</ele>
        <time>2014-04-07T09:34:17.000Z</time>
      </trkpt>
      <trkpt lat="45.76312" lon="6.65388">
        <ele>1849.4000244141</ele>
        <time>2014-04-07T09:34:21.000Z</time>
      </trkpt>
      <trkpt lat="45.76313" lon="6.65391">
        <ele>1850.1999511719</ele>
        <time>2014-04-07T09:34:26.000Z</time>
      </trkpt>
      <trkpt lat="45.76315" lon="6.65393">
        <ele>1850.8000488281</ele>
        <time>2014-04-07T09:34:31.000Z</time>
      </trkpt>
      <trkpt lat="45.76316" lon="6.65397">
        <ele>1851.5999755859</ele>
        <time>2014-04-07T09:34:37.000Z</time>
      </trkpt>
      <trkpt lat="45.76317" lon="6.654">
        <ele>1852.4000244141</ele>
        <time>2014-04-07T09:34:43.000Z</time>
      </trkpt>
      <trkpt lat="45.7632" lon="6.65405">
        <ele>1853.5999755859</ele>
        <time>2014-04-07T09:34:52.000Z</time>
      </trkpt>
      <trkpt lat="45.76323" lon="6.65409">
        <ele>1854.4000244141</ele>
        <time>2014-04-07T09:34:59.000Z</time>
      </trkpt>
      <trkpt lat="45.76325" lon="6.65411">
        <ele>1855</ele>
        <time>2014-04-07T09:35:05.000Z</time>
      </trkpt>
      <trkpt lat="45.76325" lon="6.65415">
        <ele>1855.8000488281</ele>
        <time>2014-04-07T09:35:10.000Z</time>
      </trkpt>
      <trkpt lat="45.76324" lon="6.65418">
        <ele>1857</ele>
        <time>2014-04-07T09:35:16.000Z</time>
      </trkpt>
      <trkpt lat="45.76322" lon="6.65419">
        <ele>1857.4000244141</ele>
        <time>2014-04-07T09:35:20.000Z</time>
      </trkpt>
      <trkpt lat="45.76321" lon="6.65419">
        <ele>1857.8000488281</ele>
        <time>2014-04-07T09:35:24.000Z</time>
      </trkpt>
      <trkpt lat="45.76318" lon="6.6542">
        <ele>1858.4000244141</ele>
        <time>2014-04-07T09:35:30.000Z</time>
      </trkpt>
      <trkpt lat="45.76315" lon="6.65421">
        <ele>1859.1999511719</ele>
        <time>2014-04-07T09:35:36.000Z</time>
      </trkpt>
      <trkpt lat="45.76313" lon="6.65421">
        <ele>1859.5999755859</ele>
        <time>2014-04-07T09:35:40.000Z</time>
      </trkpt>
      <trkpt lat="45.76312" lon="6.65422">
        <ele>1860</ele>
        <time>2014-04-07T09:35:44.000Z</time>
      </trkpt>
      <trkpt lat="45.7631" lon="6.65423">
        <ele>1860.5999755859</ele>
        <time>2014-04-07T09:35:49.000Z</time>
      </trkpt>
      <trkpt lat="45.76308" lon="6.65424">
        <ele>1861</ele>
        <time>2014-04-07T09:35:54.000Z</time>
      </trkpt>
      <trkpt lat="45.76306" lon="6.65425">
        <ele>1861.5999755859</ele>
        <time>2014-04-07T09:35:59.000Z</time>
      </trkpt>
      <trkpt lat="45.76304" lon="6.65425">
        <ele>1862</ele>
        <time>2014-04-07T09:36:03.000Z</time>
      </trkpt>
      <trkpt lat="45.76302" lon="6.65426">
        <ele>1862.5999755859</ele>
        <time>2014-04-07T09:36:08.000Z</time>
      </trkpt>
      <trkpt lat="45.763" lon="6.65427">
        <ele>1863</ele>
        <time>2014-04-07T09:36:12.000Z</time>
      </trkpt>
      <trkpt lat="45.76298" lon="6.65428">
        <ele>1863.5999755859</ele>
        <time>2014-04-07T09:36:17.000Z</time>
      </trkpt>
      <trkpt lat="45.76297" lon="6.6543">
        <ele>1864.4000244141</ele>
        <time>2014-04-07T09:36:22.000Z</time>
      </trkpt>
      <trkpt lat="45.76296" lon="6.65433">
        <ele>1865.1999511719</ele>
        <time>2014-04-07T09:36:27.000Z</time>
      </trkpt>
      <trkpt lat="45.76296" lon="6.65439">
        <ele>1866.4000244141</ele>
        <time>2014-04-07T09:36:35.000Z</time>
      </trkpt>
      <trkpt lat="45.76297" lon="6.65444">
        <ele>1867.1999511719</ele>
        <time>2014-04-07T09:36:42.000Z</time>
      </trkpt>
      <trkpt lat="45.76296" lon="6.65448">
        <ele>1868.1999511719</ele>
        <time>2014-04-07T09:36:48.000Z</time>
      </trkpt>
      <trkpt lat="45.76296" lon="6.65453">
        <ele>1869.1999511719</ele>
        <time>2014-04-07T09:36:55.000Z</time>
      </trkpt>
      <trkpt lat="45.76296" lon="6.65456">
        <ele>1870</ele>
        <time>2014-04-07T09:37:00.000Z</time>
      </trkpt>
      <trkpt lat="45.76296" lon="6.65461">
        <ele>1871</ele>
        <time>2014-04-07T09:37:07.000Z</time>
      </trkpt>
      <trkpt lat="45.76296" lon="6.65465">
        <ele>1871.8000488281</ele>
        <time>2014-04-07T09:37:12.000Z</time>
      </trkpt>
      <trkpt lat="45.76295" lon="6.65469">
        <ele>1873</ele>
        <time>2014-04-07T09:37:19.000Z</time>
      </trkpt>
      <trkpt lat="45.76293" lon="6.65475">
        <ele>1874.4000244141</ele>
        <time>2014-04-07T09:37:26.000Z</time>
      </trkpt>
      <trkpt lat="45.76291" lon="6.65479">
        <ele>1875.8000488281</ele>
        <time>2014-04-07T09:37:33.000Z</time>
      </trkpt>
      <trkpt lat="45.76286" lon="6.65483">
        <ele>1877.5999755859</ele>
        <time>2014-04-07T09:37:43.000Z</time>
      </trkpt>
      <trkpt lat="45.76282" lon="6.65486">
        <ele>1879</ele>
        <time>2014-04-07T09:37:51.000Z</time>
      </trkpt>
      <trkpt lat="45.76278" lon="6.6549">
        <ele>1880.4000244141</ele>
        <time>2014-04-07T09:37:59.000Z</time>
      </trkpt>
      <trkpt lat="45.76275" lon="6.65492">
        <ele>1881.5999755859</ele>
        <time>2014-04-07T09:38:06.000Z</time>
      </trkpt>
      <trkpt lat="45.7627" lon="6.65496">
        <ele>1883.4000244141</ele>
        <time>2014-04-07T09:38:14.000Z</time>
      </trkpt>
      <trkpt lat="45.76269" lon="6.65498">
        <ele>1884</ele>
        <time>2014-04-07T09:38:19.000Z</time>
      </trkpt>
      <trkpt lat="45.76267" lon="6.65499">
        <ele>1884.4000244141</ele>
        <time>2014-04-07T09:38:50.000Z</time>
      </trkpt>
      <trkpt lat="45.76268" lon="6.65498">
        <ele>1884.1999511719</ele>
        <time>2014-04-07T09:39:11.000Z</time>
      </trkpt>
      <trkpt lat="45.76267" lon="6.65498">
        <ele>1884.4000244141</ele>
        <time>2014-04-07T09:39:51.000Z</time>
      </trkpt>
      <trkpt lat="45.76267" lon="6.65499">
        <ele>1884.4000244141</ele>
        <time>2014-04-07T09:40:34.000Z</time>
      </trkpt>
      <trkpt lat="45.76264" lon="6.65503">
        <ele>1885.4000244141</ele>
        <time>2014-04-07T09:40:41.000Z</time>
      </trkpt>
      <trkpt lat="45.76259" lon="6.6551">
        <ele>1886.4000244141</ele>
        <time>2014-04-07T09:40:49.000Z</time>
      </trkpt>
      <trkpt lat="45.76255" lon="6.65515">
        <ele>1887.1999511719</ele>
        <time>2014-04-07T09:40:55.000Z</time>
      </trkpt>
      <trkpt lat="45.76253" lon="6.65519">
        <ele>1887.5999755859</ele>
        <time>2014-04-07T09:40:59.000Z</time>
      </trkpt>
      <trkpt lat="45.76253" lon="6.6552">
        <ele>1887.8000488281</ele>
        <time>2014-04-07T09:41:06.000Z</time>
      </trkpt>
      <trkpt lat="45.7625" lon="6.65525">
        <ele>1888.1999511719</ele>
        <time>2014-04-07T09:41:12.000Z</time>
      </trkpt>
      <trkpt lat="45.76246" lon="6.6553">
        <ele>1888</ele>
        <time>2014-04-07T09:41:18.000Z</time>
      </trkpt>
      <trkpt lat="45.7624" lon="6.65537">
        <ele>1887.8000488281</ele>
        <time>2014-04-07T09:41:26.000Z</time>
      </trkpt>
      <trkpt lat="45.76235" lon="6.65542">
        <ele>1887.8000488281</ele>
        <time>2014-04-07T09:41:33.000Z</time>
      </trkpt>
      <trkpt lat="45.76228" lon="6.65549">
        <ele>1887.8000488281</ele>
        <time>2014-04-07T09:41:41.000Z</time>
      </trkpt>
      <trkpt lat="45.76223" lon="6.65555">
        <ele>1887.8000488281</ele>
        <time>2014-04-07T09:41:49.000Z</time>
      </trkpt>
      <trkpt lat="45.7622" lon="6.65558">
        <ele>1888</ele>
        <time>2014-04-07T09:41:52.000Z</time>
      </trkpt>
      <trkpt lat="45.76213" lon="6.65565">
        <ele>1888.1999511719</ele>
        <time>2014-04-07T09:42:00.000Z</time>
      </trkpt>
      <trkpt lat="45.76208" lon="6.65571">
        <ele>1888.5999755859</ele>
        <time>2014-04-07T09:42:06.000Z</time>
      </trkpt>
      <trkpt lat="45.76208" lon="6.65571">
        <ele>1888.5999755859</ele>
        <time>2014-04-07T09:42:06.000Z</time>
      </trkpt>
      <trkpt lat="45.76205" lon="6.65574">
        <ele>1888.8000488281</ele>
        <time>2014-04-07T09:42:10.000Z</time>
      </trkpt>
      <trkpt lat="45.76202" lon="6.65577">
        <ele>1889</ele>
        <time>2014-04-07T09:42:14.000Z</time>
      </trkpt>
      <trkpt lat="45.76197" lon="6.65582">
        <ele>1889.5999755859</ele>
        <time>2014-04-07T09:42:22.000Z</time>
      </trkpt>
      <trkpt lat="45.76192" lon="6.65587">
        <ele>1889.5999755859</ele>
        <time>2014-04-07T09:42:28.000Z</time>
      </trkpt>
      <trkpt lat="45.76187" lon="6.65593">
        <ele>1889.5999755859</ele>
        <time>2014-04-07T09:42:36.000Z</time>
      </trkpt>
      <trkpt lat="45.76182" lon="6.65598">
        <ele>1889.8000488281</ele>
        <time>2014-04-07T09:42:44.000Z</time>
      </trkpt>
      <trkpt lat="45.76177" lon="6.65603">
        <ele>1889.8000488281</ele>
        <time>2014-04-07T09:42:51.000Z</time>
      </trkpt>
      <trkpt lat="45.76171" lon="6.65609">
        <ele>1890.1999511719</ele>
        <time>2014-04-07T09:42:59.000Z</time>
      </trkpt>
      <trkpt lat="45.76165" lon="6.65615">
        <ele>1890.1999511719</ele>
        <time>2014-04-07T09:43:06.000Z</time>
      </trkpt>
      <trkpt lat="45.76161" lon="6.65619">
        <ele>1889.8000488281</ele>
        <time>2014-04-07T09:43:12.000Z</time>
      </trkpt>
      <trkpt lat="45.76155" lon="6.65624">
        <ele>1889.1999511719</ele>
        <time>2014-04-07T09:43:19.000Z</time>
      </trkpt>
      <trkpt lat="45.76154" lon="6.65626">
        <ele>1889.1999511719</ele>
        <time>2014-04-07T09:43:21.000Z</time>
      </trkpt>
      <trkpt lat="45.76149" lon="6.6563">
        <ele>1888.8000488281</ele>
        <time>2014-04-07T09:43:26.000Z</time>
      </trkpt>
      <trkpt lat="45.76143" lon="6.65636">
        <ele>1888.5999755859</ele>
        <time>2014-04-07T09:43:35.000Z</time>
      </trkpt>
      <trkpt lat="45.76137" lon="6.65641">
        <ele>1888.4000244141</ele>
        <time>2014-04-07T09:43:42.000Z</time>
      </trkpt>
      <trkpt lat="45.76131" lon="6.65646">
        <ele>1888.4000244141</ele>
        <time>2014-04-07T09:43:49.000Z</time>
      </trkpt>
      <trkpt lat="45.76127" lon="6.6565">
        <ele>1888.5999755859</ele>
        <time>2014-04-07T09:43:55.000Z</time>
      </trkpt>
      <trkpt lat="45.76122" lon="6.65654">
        <ele>1888.5999755859</ele>
        <time>2014-04-07T09:44:01.000Z</time>
      </trkpt>
      <trkpt lat="45.76118" lon="6.65658">
        <ele>1888.8000488281</ele>
        <time>2014-04-07T09:44:07.000Z</time>
      </trkpt>
      <trkpt lat="45.76112" lon="6.65662">
        <ele>1889.1999511719</ele>
        <time>2014-04-07T09:44:14.000Z</time>
      </trkpt>
      <trkpt lat="45.76108" lon="6.65666">
        <ele>1889.4000244141</ele>
        <time>2014-04-07T09:44:20.000Z</time>
      </trkpt>
      <trkpt lat="45.76103" lon="6.6567">
        <ele>1889.5999755859</ele>
        <time>2014-04-07T09:44:27.000Z</time>
      </trkpt>
      <trkpt lat="45.76096" lon="6.65675">
        <ele>1889.5999755859</ele>
        <time>2014-04-07T09:44:36.000Z</time>
      </trkpt>
      <trkpt lat="45.76091" lon="6.65679">
        <ele>1889.8000488281</ele>
        <time>2014-04-07T09:44:43.000Z</time>
      </trkpt>
      <trkpt lat="45.76085" lon="6.65683">
        <ele>1890</ele>
        <time>2014-04-07T09:44:51.000Z</time>
      </trkpt>
      <trkpt lat="45.7608" lon="6.65687">
        <ele>1890.4000244141</ele>
        <time>2014-04-07T09:45:00.000Z</time>
      </trkpt>
      <trkpt lat="45.76077" lon="6.65688">
        <ele>1890.5999755859</ele>
        <time>2014-04-07T09:45:08.000Z</time>
      </trkpt>
      <trkpt lat="45.76074" lon="6.65691">
        <ele>1891</ele>
        <time>2014-04-07T09:45:24.000Z</time>
      </trkpt>
      <trkpt lat="45.76069" lon="6.65697">
        <ele>1891.8000488281</ele>
        <time>2014-04-07T09:45:32.000Z</time>
      </trkpt>
      <trkpt lat="45.76068" lon="6.65698">
        <ele>1891.8000488281</ele>
        <time>2014-04-07T09:45:39.000Z</time>
      </trkpt>
      <trkpt lat="45.76064" lon="6.65701">
        <ele>1892.4000244141</ele>
        <time>2014-04-07T09:45:53.000Z</time>
      </trkpt>
      <trkpt lat="45.7606" lon="6.65706">
        <ele>1893.1999511719</ele>
        <time>2014-04-07T09:46:01.000Z</time>
      </trkpt>
      <trkpt lat="45.76055" lon="6.65711">
        <ele>1894</ele>
        <time>2014-04-07T09:46:09.000Z</time>
      </trkpt>
      <trkpt lat="45.76049" lon="6.65716">
        <ele>1895</ele>
        <time>2014-04-07T09:46:17.000Z</time>
      </trkpt>
      <trkpt lat="45.76043" lon="6.65723">
        <ele>1896.1999511719</ele>
        <time>2014-04-07T09:46:26.000Z</time>
      </trkpt>
      <trkpt lat="45.76038" lon="6.65729">
        <ele>1897.4000244141</ele>
        <time>2014-04-07T09:46:34.000Z</time>
      </trkpt>
      <trkpt lat="45.76034" lon="6.65734">
        <ele>1898.5999755859</ele>
        <time>2014-04-07T09:46:41.000Z</time>
      </trkpt>
      <trkpt lat="45.7603" lon="6.65739">
        <ele>1899.5999755859</ele>
        <time>2014-04-07T09:46:48.000Z</time>
      </trkpt>
      <trkpt lat="45.76027" lon="6.65742">
        <ele>1900.4000244141</ele>
        <time>2014-04-07T09:46:55.000Z</time>
      </trkpt>
      <trkpt lat="45.76024" lon="6.65741">
        <ele>1900.5999755859</ele>
        <time>2014-04-07T09:47:00.000Z</time>
      </trkpt>
      <trkpt lat="45.7602" lon="6.6574">
        <ele>1901</ele>
        <time>2014-04-07T09:47:05.000Z</time>
      </trkpt>
      <trkpt lat="45.76014" lon="6.65739">
        <ele>1901.4000244141</ele>
        <time>2014-04-07T09:47:12.000Z</time>
      </trkpt>
      <trkpt lat="45.76009" lon="6.65738">
        <ele>1902</ele>
        <time>2014-04-07T09:47:19.000Z</time>
      </trkpt>
      <trkpt lat="45.76003" lon="6.65737">
        <ele>1902.5999755859</ele>
        <time>2014-04-07T09:47:26.000Z</time>
      </trkpt>
      <trkpt lat="45.75998" lon="6.65737">
        <ele>1903.1999511719</ele>
        <time>2014-04-07T09:47:33.000Z</time>
      </trkpt>
      <trkpt lat="45.75992" lon="6.65737">
        <ele>1904</ele>
        <time>2014-04-07T09:47:40.000Z</time>
      </trkpt>
      <trkpt lat="45.75986" lon="6.65737">
        <ele>1904.5999755859</ele>
        <time>2014-04-07T09:47:47.000Z</time>
      </trkpt>
      <trkpt lat="45.75979" lon="6.65739">
        <ele>1905.8000488281</ele>
        <time>2014-04-07T09:47:54.000Z</time>
      </trkpt>
      <trkpt lat="45.75976" lon="6.6574">
        <ele>1906.4000244141</ele>
        <time>2014-04-07T09:47:58.000Z</time>
      </trkpt>
      <trkpt lat="45.75972" lon="6.65741">
        <ele>1907</ele>
        <time>2014-04-07T09:48:02.000Z</time>
      </trkpt>
      <trkpt lat="45.75965" lon="6.65743">
        <ele>1908.4000244141</ele>
        <time>2014-04-07T09:48:10.000Z</time>
      </trkpt>
      <trkpt lat="45.7596" lon="6.65745">
        <ele>1909.4000244141</ele>
        <time>2014-04-07T09:48:17.000Z</time>
      </trkpt>
      <trkpt lat="45.75956" lon="6.65748">
        <ele>1910.5999755859</ele>
        <time>2014-04-07T09:48:25.000Z</time>
      </trkpt>
      <trkpt lat="45.75951" lon="6.6575">
        <ele>1911.4000244141</ele>
        <time>2014-04-07T09:48:33.000Z</time>
      </trkpt>
      <trkpt lat="45.75946" lon="6.65753">
        <ele>1912.4000244141</ele>
        <time>2014-04-07T09:48:41.000Z</time>
      </trkpt>
      <trkpt lat="45.75942" lon="6.65757">
        <ele>1913.5999755859</ele>
        <time>2014-04-07T09:48:49.000Z</time>
      </trkpt>
      <trkpt lat="45.75938" lon="6.65761">
        <ele>1914.5999755859</ele>
        <time>2014-04-07T09:48:56.000Z</time>
      </trkpt>
      <trkpt lat="45.75935" lon="6.65765">
        <ele>1915.5999755859</ele>
        <time>2014-04-07T09:49:03.000Z</time>
      </trkpt>
      <trkpt lat="45.75933" lon="6.6577">
        <ele>1916.5999755859</ele>
        <time>2014-04-07T09:49:10.000Z</time>
      </trkpt>
      <trkpt lat="45.75931" lon="6.65777">
        <ele>1917.8000488281</ele>
        <time>2014-04-07T09:49:17.000Z</time>
      </trkpt>
      <trkpt lat="45.75929" lon="6.65785">
        <ele>1919.4000244141</ele>
        <time>2014-04-07T09:49:26.000Z</time>
      </trkpt>
      <trkpt lat="45.75928" lon="6.65791">
        <ele>1920.4000244141</ele>
        <time>2014-04-07T09:49:32.000Z</time>
      </trkpt>
      <trkpt lat="45.75926" lon="6.65798">
        <ele>1921.8000488281</ele>
        <time>2014-04-07T09:49:40.000Z</time>
      </trkpt>
      <trkpt lat="45.75925" lon="6.65803">
        <ele>1922.8000488281</ele>
        <time>2014-04-07T09:49:46.000Z</time>
      </trkpt>
      <trkpt lat="45.75924" lon="6.6581">
        <ele>1923.8000488281</ele>
        <time>2014-04-07T09:49:53.000Z</time>
      </trkpt>
      <trkpt lat="45.75923" lon="6.65816">
        <ele>1925</ele>
        <time>2014-04-07T09:50:00.000Z</time>
      </trkpt>
      <trkpt lat="45.75922" lon="6.65823">
        <ele>1926.1999511719</ele>
        <time>2014-04-07T09:50:08.000Z</time>
      </trkpt>
      <trkpt lat="45.75922" lon="6.65829">
        <ele>1927</ele>
        <time>2014-04-07T09:50:15.000Z</time>
      </trkpt>
      <trkpt lat="45.75923" lon="6.65835">
        <ele>1927.8000488281</ele>
        <time>2014-04-07T09:50:22.000Z</time>
      </trkpt>
      <trkpt lat="45.75924" lon="6.6584">
        <ele>1928.1999511719</ele>
        <time>2014-04-07T09:50:28.000Z</time>
      </trkpt>
      <trkpt lat="45.75925" lon="6.65846">
        <ele>1928.5999755859</ele>
        <time>2014-04-07T09:50:36.000Z</time>
      </trkpt>
      <trkpt lat="45.75927" lon="6.65851">
        <ele>1928.8000488281</ele>
        <time>2014-04-07T09:50:43.000Z</time>
      </trkpt>
      <trkpt lat="45.75928" lon="6.65857">
        <ele>1929.1999511719</ele>
        <time>2014-04-07T09:50:51.000Z</time>
      </trkpt>
      <trkpt lat="45.7593" lon="6.65861">
        <ele>1929.4000244141</ele>
        <time>2014-04-07T09:50:58.000Z</time>
      </trkpt>
      <trkpt lat="45.75931" lon="6.65865">
        <ele>1929.5999755859</ele>
        <time>2014-04-07T09:51:04.000Z</time>
      </trkpt>
      <trkpt lat="45.75931" lon="6.65869">
        <ele>1930</ele>
        <time>2014-04-07T09:51:09.000Z</time>
      </trkpt>
      <trkpt lat="45.75929" lon="6.6587">
        <ele>1930.5999755859</ele>
        <time>2014-04-07T09:51:13.000Z</time>
      </trkpt>
      <trkpt lat="45.75925" lon="6.65871">
        <ele>1931.5999755859</ele>
        <time>2014-04-07T09:51:20.000Z</time>
      </trkpt>
      <trkpt lat="45.75923" lon="6.65872">
        <ele>1932.4000244141</ele>
        <time>2014-04-07T09:51:25.000Z</time>
      </trkpt>
      <trkpt lat="45.75921" lon="6.65873">
        <ele>1933</ele>
        <time>2014-04-07T09:51:30.000Z</time>
      </trkpt>
      <trkpt lat="45.7592" lon="6.65875">
        <ele>1933.5999755859</ele>
        <time>2014-04-07T09:51:34.000Z</time>
      </trkpt>
      <trkpt lat="45.75919" lon="6.65877">
        <ele>1934</ele>
        <time>2014-04-07T09:51:39.000Z</time>
      </trkpt>
      <trkpt lat="45.7592" lon="6.65877">
        <ele>1933.8000488281</ele>
        <time>2014-04-07T09:51:59.000Z</time>
      </trkpt>
      <trkpt lat="45.75918" lon="6.6588">
        <ele>1934.8000488281</ele>
        <time>2014-04-07T09:52:06.000Z</time>
      </trkpt>
      <trkpt lat="45.75914" lon="6.65885">
        <ele>1935.8000488281</ele>
        <time>2014-04-07T09:52:14.000Z</time>
      </trkpt>
      <trkpt lat="45.75911" lon="6.65891">
        <ele>1936.5999755859</ele>
        <time>2014-04-07T09:52:24.000Z</time>
      </trkpt>
      <trkpt lat="45.75909" lon="6.65894">
        <ele>1937</ele>
        <time>2014-04-07T09:52:31.000Z</time>
      </trkpt>
      <trkpt lat="45.75908" lon="6.65895">
        <ele>1937</ele>
        <time>2014-04-07T09:52:32.000Z</time>
      </trkpt>
      <trkpt lat="45.75906" lon="6.65899">
        <ele>1937.5999755859</ele>
        <time>2014-04-07T09:52:37.000Z</time>
      </trkpt>
      <trkpt lat="45.75903" lon="6.65906">
        <ele>1938.5999755859</ele>
        <time>2014-04-07T09:52:44.000Z</time>
      </trkpt>
      <trkpt lat="45.759" lon="6.65912">
        <ele>1939.4000244141</ele>
        <time>2014-04-07T09:52:51.000Z</time>
      </trkpt>
      <trkpt lat="45.75898" lon="6.65918">
        <ele>1940.1999511719</ele>
        <time>2014-04-07T09:52:58.000Z</time>
      </trkpt>
      <trkpt lat="45.75896" lon="6.65923">
        <ele>1940.8000488281</ele>
        <time>2014-04-07T09:53:05.000Z</time>
      </trkpt>
      <trkpt lat="45.75895" lon="6.65929">
        <ele>1941.4000244141</ele>
        <time>2014-04-07T09:53:12.000Z</time>
      </trkpt>
      <trkpt lat="45.75894" lon="6.65935">
        <ele>1942.1999511719</ele>
        <time>2014-04-07T09:53:20.000Z</time>
      </trkpt>
      <trkpt lat="45.75892" lon="6.65942">
        <ele>1943.1999511719</ele>
        <time>2014-04-07T09:53:29.000Z</time>
      </trkpt>
      <trkpt lat="45.75891" lon="6.65949">
        <ele>1944</ele>
        <time>2014-04-07T09:53:36.000Z</time>
      </trkpt>
      <trkpt lat="45.7589" lon="6.65957">
        <ele>1945.1999511719</ele>
        <time>2014-04-07T09:53:44.000Z</time>
      </trkpt>
      <trkpt lat="45.75889" lon="6.65963">
        <ele>1946</ele>
        <time>2014-04-07T09:53:50.000Z</time>
      </trkpt>
      <trkpt lat="45.75889" lon="6.65967">
        <ele>1946.5999755859</ele>
        <time>2014-04-07T09:53:55.000Z</time>
      </trkpt>
      <trkpt lat="45.75889" lon="6.65974">
        <ele>1947.4000244141</ele>
        <time>2014-04-07T09:54:03.000Z</time>
      </trkpt>
      <trkpt lat="45.7589" lon="6.65978">
        <ele>1948</ele>
        <time>2014-04-07T09:54:09.000Z</time>
      </trkpt>
      <trkpt lat="45.7589" lon="6.65982">
        <ele>1948.4000244141</ele>
        <time>2014-04-07T09:54:15.000Z</time>
      </trkpt>
      <trkpt lat="45.75891" lon="6.65985">
        <ele>1948.8000488281</ele>
        <time>2014-04-07T09:54:20.000Z</time>
      </trkpt>
      <trkpt lat="45.75892" lon="6.6599">
        <ele>1949.1999511719</ele>
        <time>2014-04-07T09:54:27.000Z</time>
      </trkpt>
      <trkpt lat="45.75894" lon="6.65996">
        <ele>1949.8000488281</ele>
        <time>2014-04-07T09:54:35.000Z</time>
      </trkpt>
      <trkpt lat="45.75896" lon="6.66001">
        <ele>1950.1999511719</ele>
        <time>2014-04-07T09:54:43.000Z</time>
      </trkpt>
      <trkpt lat="45.75897" lon="6.66004">
        <ele>1950.4000244141</ele>
        <time>2014-04-07T09:54:49.000Z</time>
      </trkpt>
      <trkpt lat="45.75898" lon="6.66007">
        <ele>1950.8000488281</ele>
        <time>2014-04-07T09:54:54.000Z</time>
      </trkpt>
      <trkpt lat="45.75899" lon="6.66011">
        <ele>1951.1999511719</ele>
        <time>2014-04-07T09:54:59.000Z</time>
      </trkpt>
      <trkpt lat="45.75899" lon="6.66014">
        <ele>1951.8000488281</ele>
        <time>2014-04-07T09:55:05.000Z</time>
      </trkpt>
      <trkpt lat="45.75898" lon="6.66018">
        <ele>1952.5999755859</ele>
        <time>2014-04-07T09:55:11.000Z</time>
      </trkpt>
      <trkpt lat="45.75898" lon="6.66024">
        <ele>1953.5999755859</ele>
        <time>2014-04-07T09:55:19.000Z</time>
      </trkpt>
      <trkpt lat="45.75897" lon="6.66027">
        <ele>1954</ele>
        <time>2014-04-07T09:55:23.000Z</time>
      </trkpt>
      <trkpt lat="45.75896" lon="6.66033">
        <ele>1955.4000244141</ele>
        <time>2014-04-07T09:55:30.000Z</time>
      </trkpt>
      <trkpt lat="45.75892" lon="6.66039">
        <ele>1956.8000488281</ele>
        <time>2014-04-07T09:55:37.000Z</time>
      </trkpt>
      <trkpt lat="45.75889" lon="6.66044">
        <ele>1958.1999511719</ele>
        <time>2014-04-07T09:55:43.000Z</time>
      </trkpt>
      <trkpt lat="45.75885" lon="6.66051">
        <ele>1960</ele>
        <time>2014-04-07T09:55:51.000Z</time>
      </trkpt>
      <trkpt lat="45.75883" lon="6.66056">
        <ele>1961.1999511719</ele>
        <time>2014-04-07T09:55:56.000Z</time>
      </trkpt>
      <trkpt lat="45.7588" lon="6.66062">
        <ele>1962.8000488281</ele>
        <time>2014-04-07T09:56:03.000Z</time>
      </trkpt>
      <trkpt lat="45.75879" lon="6.66062">
        <ele>1963</ele>
        <time>2014-04-07T09:56:10.000Z</time>
      </trkpt>
      <trkpt lat="45.75879" lon="6.66063">
        <ele>1963.1999511719</ele>
        <time>2014-04-07T09:56:17.000Z</time>
      </trkpt>
      <trkpt lat="45.75879" lon="6.66064">
        <ele>1963.4000244141</ele>
        <time>2014-04-07T09:56:23.000Z</time>
      </trkpt>
      <trkpt lat="45.75879" lon="6.66065">
        <ele>1963.5999755859</ele>
        <time>2014-04-07T09:56:51.000Z</time>
      </trkpt>
      <trkpt lat="45.75878" lon="6.66068">
        <ele>1964.4000244141</ele>
        <time>2014-04-07T09:58:29.000Z</time>
      </trkpt>
      <trkpt lat="45.75878" lon="6.6607">
        <ele>1964.4000244141</ele>
        <time>2014-04-07T09:58:40.000Z</time>
      </trkpt>
      <trkpt lat="45.75878" lon="6.66074">
        <ele>1965.1999511719</ele>
        <time>2014-04-07T09:59:25.000Z</time>
      </trkpt>
      <trkpt lat="45.75877" lon="6.66078">
        <ele>1966.1999511719</ele>
        <time>2014-04-07T09:59:32.000Z</time>
      </trkpt>
      <trkpt lat="45.75875" lon="6.66081">
        <ele>1967</ele>
        <time>2014-04-07T09:59:37.000Z</time>
      </trkpt>
      <trkpt lat="45.75874" lon="6.66084">
        <ele>1967.8000488281</ele>
        <time>2014-04-07T09:59:43.000Z</time>
      </trkpt>
      <trkpt lat="45.75871" lon="6.66089">
        <ele>1969.1999511719</ele>
        <time>2014-04-07T09:59:52.000Z</time>
      </trkpt>
      <trkpt lat="45.75869" lon="6.66091">
        <ele>1969.8000488281</ele>
        <time>2014-04-07T09:59:57.000Z</time>
      </trkpt>
      <trkpt lat="45.75868" lon="6.66092">
        <ele>1970.4000244141</ele>
        <time>2014-04-07T10:00:01.000Z</time>
      </trkpt>
      <trkpt lat="45.75866" lon="6.66093">
        <ele>1970.8000488281</ele>
        <time>2014-04-07T10:00:05.000Z</time>
      </trkpt>
      <trkpt lat="45.75864" lon="6.66093">
        <ele>1971.1999511719</ele>
        <time>2014-04-07T10:00:10.000Z</time>
      </trkpt>
      <trkpt lat="45.75862" lon="6.66093">
        <ele>1971.8000488281</ele>
        <time>2014-04-07T10:00:16.000Z</time>
      </trkpt>
      <trkpt lat="45.7586" lon="6.66095">
        <ele>1972.4000244141</ele>
        <time>2014-04-07T10:00:21.000Z</time>
      </trkpt>
      <trkpt lat="45.75858" lon="6.66097">
        <ele>1973.1999511719</ele>
        <time>2014-04-07T10:00:27.000Z</time>
      </trkpt>
      <trkpt lat="45.75856" lon="6.66098">
        <ele>1973.8000488281</ele>
        <time>2014-04-07T10:00:32.000Z</time>
      </trkpt>
      <trkpt lat="45.75854" lon="6.66097">
        <ele>1974</ele>
        <time>2014-04-07T10:00:53.000Z</time>
      </trkpt>
      <trkpt lat="45.75852" lon="6.66097">
        <ele>1974.4000244141</ele>
        <time>2014-04-07T10:00:57.000Z</time>
      </trkpt>
      <trkpt lat="45.7585" lon="6.66099">
        <ele>1975.1999511719</ele>
        <time>2014-04-07T10:01:02.000Z</time>
      </trkpt>
      <trkpt lat="45.75846" lon="6.66103">
        <ele>1976.5999755859</ele>
        <time>2014-04-07T10:01:11.000Z</time>
      </trkpt>
      <trkpt lat="45.75844" lon="6.66104">
        <ele>1977.1999511719</ele>
        <time>2014-04-07T10:01:16.000Z</time>
      </trkpt>
      <trkpt lat="45.75842" lon="6.66106">
        <ele>1978</ele>
        <time>2014-04-07T10:01:21.000Z</time>
      </trkpt>
      <trkpt lat="45.7584" lon="6.66107">
        <ele>1978.5999755859</ele>
        <time>2014-04-07T10:01:26.000Z</time>
      </trkpt>
      <trkpt lat="45.75839" lon="6.66109">
        <ele>1979.1999511719</ele>
        <time>2014-04-07T10:01:31.000Z</time>
      </trkpt>
      <trkpt lat="45.75837" lon="6.6611">
        <ele>1979.5999755859</ele>
        <time>2014-04-07T10:01:36.000Z</time>
      </trkpt>
      <trkpt lat="45.75835" lon="6.66112">
        <ele>1980.4000244141</ele>
        <time>2014-04-07T10:01:44.000Z</time>
      </trkpt>
      <trkpt lat="45.75833" lon="6.66113">
        <ele>1981</ele>
        <time>2014-04-07T10:01:49.000Z</time>
      </trkpt>
      <trkpt lat="45.75831" lon="6.66114">
        <ele>1981.8000488281</ele>
        <time>2014-04-07T10:01:54.000Z</time>
      </trkpt>
      <trkpt lat="45.75829" lon="6.66116">
        <ele>1982.8000488281</ele>
        <time>2014-04-07T10:02:00.000Z</time>
      </trkpt>
      <trkpt lat="45.75827" lon="6.66117">
        <ele>1983.5999755859</ele>
        <time>2014-04-07T10:02:05.000Z</time>
      </trkpt>
      <trkpt lat="45.75825" lon="6.66119">
        <ele>1984.8000488281</ele>
        <time>2014-04-07T10:02:11.000Z</time>
      </trkpt>
      <trkpt lat="45.75823" lon="6.66121">
        <ele>1985.8000488281</ele>
        <time>2014-04-07T10:02:16.000Z</time>
      </trkpt>
      <trkpt lat="45.75819" lon="6.66123">
        <ele>1987.5999755859</ele>
        <time>2014-04-07T10:02:24.000Z</time>
      </trkpt>
      <trkpt lat="45.75816" lon="6.66124">
        <ele>1988.8000488281</ele>
        <time>2014-04-07T10:02:31.000Z</time>
      </trkpt>
      <trkpt lat="45.75813" lon="6.66125">
        <ele>1989.8000488281</ele>
        <time>2014-04-07T10:02:36.000Z</time>
      </trkpt>
      <trkpt lat="45.75811" lon="6.66126">
        <ele>1990.5999755859</ele>
        <time>2014-04-07T10:02:41.000Z</time>
      </trkpt>
      <trkpt lat="45.75808" lon="6.66127">
        <ele>1991.5999755859</ele>
        <time>2014-04-07T10:02:47.000Z</time>
      </trkpt>
      <trkpt lat="45.75807" lon="6.66127">
        <ele>1992.4000244141</ele>
        <time>2014-04-07T10:02:52.000Z</time>
      </trkpt>
      <trkpt lat="45.75805" lon="6.66128">
        <ele>1993</ele>
        <time>2014-04-07T10:02:57.000Z</time>
      </trkpt>
      <trkpt lat="45.75803" lon="6.66128">
        <ele>1993.5999755859</ele>
        <time>2014-04-07T10:03:02.000Z</time>
      </trkpt>
      <trkpt lat="45.75802" lon="6.66128">
        <ele>1994.1999511719</ele>
        <time>2014-04-07T10:03:07.000Z</time>
      </trkpt>
      <trkpt lat="45.758" lon="6.66128">
        <ele>1994.8000488281</ele>
        <time>2014-04-07T10:03:12.000Z</time>
      </trkpt>
      <trkpt lat="45.75798" lon="6.66128">
        <ele>1995.5999755859</ele>
        <time>2014-04-07T10:03:16.000Z</time>
      </trkpt>
      <trkpt lat="45.75795" lon="6.6613">
        <ele>1997</ele>
        <time>2014-04-07T10:03:24.000Z</time>
      </trkpt>
      <trkpt lat="45.75792" lon="6.66132">
        <ele>1998</ele>
        <time>2014-04-07T10:03:29.000Z</time>
      </trkpt>
      <trkpt lat="45.75789" lon="6.66134">
        <ele>1999.4000244141</ele>
        <time>2014-04-07T10:03:35.000Z</time>
      </trkpt>
      <trkpt lat="45.75788" lon="6.66135">
        <ele>2000.4000244141</ele>
        <time>2014-04-07T10:03:40.000Z</time>
      </trkpt>
      <trkpt lat="45.75785" lon="6.66136">
        <ele>2001.1999511719</ele>
        <time>2014-04-07T10:03:45.000Z</time>
      </trkpt>
      <trkpt lat="45.75783" lon="6.66138">
        <ele>2002.4000244141</ele>
        <time>2014-04-07T10:03:51.000Z</time>
      </trkpt>
      <trkpt lat="45.75782" lon="6.6614">
        <ele>2003.4000244141</ele>
        <time>2014-04-07T10:03:56.000Z</time>
      </trkpt>
      <trkpt lat="45.75778" lon="6.66142">
        <ele>2004.8000488281</ele>
        <time>2014-04-07T10:04:03.000Z</time>
      </trkpt>
      <trkpt lat="45.75776" lon="6.66143">
        <ele>2005.8000488281</ele>
        <time>2014-04-07T10:04:08.000Z</time>
      </trkpt>
      <trkpt lat="45.75773" lon="6.66143">
        <ele>2006.8000488281</ele>
        <time>2014-04-07T10:04:14.000Z</time>
      </trkpt>
      <trkpt lat="45.75771" lon="6.66143">
        <ele>2007.8000488281</ele>
        <time>2014-04-07T10:04:23.000Z</time>
      </trkpt>
      <trkpt lat="45.75768" lon="6.66143">
        <ele>2008.8000488281</ele>
        <time>2014-04-07T10:04:29.000Z</time>
      </trkpt>
      <trkpt lat="45.75766" lon="6.66142">
        <ele>2009.1999511719</ele>
        <time>2014-04-07T10:04:33.000Z</time>
      </trkpt>
      <trkpt lat="45.75764" lon="6.66142">
        <ele>2009.8000488281</ele>
        <time>2014-04-07T10:04:37.000Z</time>
      </trkpt>
      <trkpt lat="45.75762" lon="6.66141">
        <ele>2010.1999511719</ele>
        <time>2014-04-07T10:04:41.000Z</time>
      </trkpt>
      <trkpt lat="45.7576" lon="6.6614">
        <ele>2010.8000488281</ele>
        <time>2014-04-07T10:04:47.000Z</time>
      </trkpt>
      <trkpt lat="45.75758" lon="6.66139">
        <ele>2011.4000244141</ele>
        <time>2014-04-07T10:04:51.000Z</time>
      </trkpt>
      <trkpt lat="45.75755" lon="6.66138">
        <ele>2012</ele>
        <time>2014-04-07T10:04:58.000Z</time>
      </trkpt>
      <trkpt lat="45.75753" lon="6.66137">
        <ele>2012.4000244141</ele>
        <time>2014-04-07T10:05:03.000Z</time>
      </trkpt>
      <trkpt lat="45.75751" lon="6.66136">
        <ele>2013</ele>
        <time>2014-04-07T10:05:08.000Z</time>
      </trkpt>
      <trkpt lat="45.75749" lon="6.66135">
        <ele>2013.5999755859</ele>
        <time>2014-04-07T10:05:13.000Z</time>
      </trkpt>
      <trkpt lat="45.75747" lon="6.66135">
        <ele>2014</ele>
        <time>2014-04-07T10:05:19.000Z</time>
      </trkpt>
      <trkpt lat="45.75745" lon="6.66134">
        <ele>2014.5999755859</ele>
        <time>2014-04-07T10:05:25.000Z</time>
      </trkpt>
      <trkpt lat="45.75743" lon="6.66133">
        <ele>2015.1999511719</ele>
        <time>2014-04-07T10:05:30.000Z</time>
      </trkpt>
      <trkpt lat="45.75741" lon="6.66132">
        <ele>2015.5999755859</ele>
        <time>2014-04-07T10:05:35.000Z</time>
      </trkpt>
      <trkpt lat="45.75739" lon="6.66131">
        <ele>2016.1999511719</ele>
        <time>2014-04-07T10:05:40.000Z</time>
      </trkpt>
      <trkpt lat="45.75737" lon="6.6613">
        <ele>2016.5999755859</ele>
        <time>2014-04-07T10:05:45.000Z</time>
      </trkpt>
      <trkpt lat="45.75736" lon="6.6613">
        <ele>2017</ele>
        <time>2014-04-07T10:05:50.000Z</time>
      </trkpt>
      <trkpt lat="45.75734" lon="6.66129">
        <ele>2017.4000244141</ele>
        <time>2014-04-07T10:05:55.000Z</time>
      </trkpt>
      <trkpt lat="45.75732" lon="6.66128">
        <ele>2018</ele>
        <time>2014-04-07T10:06:01.000Z</time>
      </trkpt>
      <trkpt lat="45.7573" lon="6.66127">
        <ele>2018.4000244141</ele>
        <time>2014-04-07T10:06:07.000Z</time>
      </trkpt>
      <trkpt lat="45.75728" lon="6.66126">
        <ele>2018.8000488281</ele>
        <time>2014-04-07T10:06:12.000Z</time>
      </trkpt>
      <trkpt lat="45.75726" lon="6.66125">
        <ele>2019.1999511719</ele>
        <time>2014-04-07T10:06:17.000Z</time>
      </trkpt>
      <trkpt lat="45.75725" lon="6.66124">
        <ele>2019.5999755859</ele>
        <time>2014-04-07T10:06:22.000Z</time>
      </trkpt>
      <trkpt lat="45.75723" lon="6.66124">
        <ele>2020</ele>
        <time>2014-04-07T10:06:27.000Z</time>
      </trkpt>
      <trkpt lat="45.75722" lon="6.66123">
        <ele>2020.4000244141</ele>
        <time>2014-04-07T10:06:32.000Z</time>
      </trkpt>
      <trkpt lat="45.7572" lon="6.66122">
        <ele>2021</ele>
        <time>2014-04-07T10:06:37.000Z</time>
      </trkpt>
      <trkpt lat="45.75718" lon="6.66123">
        <ele>2021.5999755859</ele>
        <time>2014-04-07T10:06:44.000Z</time>
      </trkpt>
      <trkpt lat="45.75718" lon="6.66125">
        <ele>2022</ele>
        <time>2014-04-07T10:06:49.000Z</time>
      </trkpt>
      <trkpt lat="45.75718" lon="6.66128">
        <ele>2022.8000488281</ele>
        <time>2014-04-07T10:06:54.000Z</time>
      </trkpt>
      <trkpt lat="45.75718" lon="6.66131">
        <ele>2023.5999755859</ele>
        <time>2014-04-07T10:07:00.000Z</time>
      </trkpt>
      <trkpt lat="45.75717" lon="6.66134">
        <ele>2024.4000244141</ele>
        <time>2014-04-07T10:07:06.000Z</time>
      </trkpt>
      <trkpt lat="45.75716" lon="6.66137">
        <ele>2025.4000244141</ele>
        <time>2014-04-07T10:07:13.000Z</time>
      </trkpt>
      <trkpt lat="45.75716" lon="6.6614">
        <ele>2026</ele>
        <time>2014-04-07T10:07:19.000Z</time>
      </trkpt>
      <trkpt lat="45.75716" lon="6.66142">
        <ele>2026.5999755859</ele>
        <time>2014-04-07T10:07:24.000Z</time>
      </trkpt>
      <trkpt lat="45.75715" lon="6.66145">
        <ele>2027.8000488281</ele>
        <time>2014-04-07T10:07:31.000Z</time>
      </trkpt>
      <trkpt lat="45.75714" lon="6.66147">
        <ele>2028.4000244141</ele>
        <time>2014-04-07T10:07:36.000Z</time>
      </trkpt>
      <trkpt lat="45.75714" lon="6.6615">
        <ele>2029.1999511719</ele>
        <time>2014-04-07T10:07:41.000Z</time>
      </trkpt>
      <trkpt lat="45.75713" lon="6.66153">
        <ele>2030.1999511719</ele>
        <time>2014-04-07T10:07:46.000Z</time>
      </trkpt>
      <trkpt lat="45.75713" lon="6.66156">
        <ele>2031</ele>
        <time>2014-04-07T10:07:52.000Z</time>
      </trkpt>
      <trkpt lat="45.75712" lon="6.66159">
        <ele>2032</ele>
        <time>2014-04-07T10:07:57.000Z</time>
      </trkpt>
      <trkpt lat="45.75711" lon="6.66161">
        <ele>2032.8000488281</ele>
        <time>2014-04-07T10:08:02.000Z</time>
      </trkpt>
      <trkpt lat="45.7571" lon="6.66164">
        <ele>2033.8000488281</ele>
        <time>2014-04-07T10:08:07.000Z</time>
      </trkpt>
      <trkpt lat="45.75709" lon="6.66167">
        <ele>2034.8000488281</ele>
        <time>2014-04-07T10:08:12.000Z</time>
      </trkpt>
      <trkpt lat="45.75708" lon="6.6617">
        <ele>2035.5999755859</ele>
        <time>2014-04-07T10:08:17.000Z</time>
      </trkpt>
      <trkpt lat="45.75708" lon="6.66173">
        <ele>2036.1999511719</ele>
        <time>2014-04-07T10:08:22.000Z</time>
      </trkpt>
      <trkpt lat="45.75707" lon="6.66175">
        <ele>2036.8000488281</ele>
        <time>2014-04-07T10:08:27.000Z</time>
      </trkpt>
      <trkpt lat="45.75707" lon="6.66178">
        <ele>2037.4000244141</ele>
        <time>2014-04-07T10:08:32.000Z</time>
      </trkpt>
      <trkpt lat="45.75704" lon="6.66178">
        <ele>2038.1999511719</ele>
        <time>2014-04-07T10:08:36.000Z</time>
      </trkpt>
      <trkpt lat="45.75701" lon="6.66176">
        <ele>2039</ele>
        <time>2014-04-07T10:08:41.000Z</time>
      </trkpt>
      <trkpt lat="45.75698" lon="6.66175">
        <ele>2039.8000488281</ele>
        <time>2014-04-07T10:08:47.000Z</time>
      </trkpt>
      <trkpt lat="45.75696" lon="6.66174">
        <ele>2040.4000244141</ele>
        <time>2014-04-07T10:08:52.000Z</time>
      </trkpt>
      <trkpt lat="45.75695" lon="6.66173">
        <ele>2040.8000488281</ele>
        <time>2014-04-07T10:08:56.000Z</time>
      </trkpt>
      <trkpt lat="45.75693" lon="6.66172">
        <ele>2041.1999511719</ele>
        <time>2014-04-07T10:09:00.000Z</time>
      </trkpt>
      <trkpt lat="45.75691" lon="6.66171">
        <ele>2041.8000488281</ele>
        <time>2014-04-07T10:09:05.000Z</time>
      </trkpt>
      <trkpt lat="45.7569" lon="6.66169">
        <ele>2042.1999511719</ele>
        <time>2014-04-07T10:09:09.000Z</time>
      </trkpt>
      <trkpt lat="45.75688" lon="6.66168">
        <ele>2042.5999755859</ele>
        <time>2014-04-07T10:09:14.000Z</time>
      </trkpt>
      <trkpt lat="45.75686" lon="6.66167">
        <ele>2043.1999511719</ele>
        <time>2014-04-07T10:09:20.000Z</time>
      </trkpt>
      <trkpt lat="45.75684" lon="6.66165">
        <ele>2043.4000244141</ele>
        <time>2014-04-07T10:09:25.000Z</time>
      </trkpt>
      <trkpt lat="45.75682" lon="6.66164">
        <ele>2043.8000488281</ele>
        <time>2014-04-07T10:09:30.000Z</time>
      </trkpt>
      <trkpt lat="45.75681" lon="6.66163">
        <ele>2044</ele>
        <time>2014-04-07T10:09:35.000Z</time>
      </trkpt>
      <trkpt lat="45.7568" lon="6.66164">
        <ele>2044.5999755859</ele>
        <time>2014-04-07T10:09:40.000Z</time>
      </trkpt>
      <trkpt lat="45.75679" lon="6.66167">
        <ele>2045.5999755859</ele>
        <time>2014-04-07T10:09:45.000Z</time>
      </trkpt>
      <trkpt lat="45.75678" lon="6.66169">
        <ele>2046.1999511719</ele>
        <time>2014-04-07T10:09:49.000Z</time>
      </trkpt>
      <trkpt lat="45.75678" lon="6.66172">
        <ele>2046.8000488281</ele>
        <time>2014-04-07T10:09:54.000Z</time>
      </trkpt>
      <trkpt lat="45.75676" lon="6.66176">
        <ele>2047.8000488281</ele>
        <time>2014-04-07T10:10:01.000Z</time>
      </trkpt>
      <trkpt lat="45.75676" lon="6.66179">
        <ele>2048.3999023438</ele>
        <time>2014-04-07T10:10:06.000Z</time>
      </trkpt>
      <trkpt lat="45.75674" lon="6.66182">
        <ele>2049.1999511719</ele>
        <time>2014-04-07T10:10:12.000Z</time>
      </trkpt>
      <trkpt lat="45.75674" lon="6.66186">
        <ele>2050</ele>
        <time>2014-04-07T10:10:19.000Z</time>
      </trkpt>
      <trkpt lat="45.75673" lon="6.66188">
        <ele>2050.3999023438</ele>
        <time>2014-04-07T10:10:24.000Z</time>
      </trkpt>
      <trkpt lat="45.75672" lon="6.66191">
        <ele>2051.1999511719</ele>
        <time>2014-04-07T10:10:30.000Z</time>
      </trkpt>
      <trkpt lat="45.75671" lon="6.66194">
        <ele>2051.8000488281</ele>
        <time>2014-04-07T10:10:35.000Z</time>
      </trkpt>
      <trkpt lat="45.75671" lon="6.66195">
        <ele>2052</ele>
        <time>2014-04-07T10:10:40.000Z</time>
      </trkpt>
      <trkpt lat="45.75669" lon="6.66197">
        <ele>2052.8000488281</ele>
        <time>2014-04-07T10:10:50.000Z</time>
      </trkpt>
      <trkpt lat="45.75668" lon="6.662">
        <ele>2053.3999023438</ele>
        <time>2014-04-07T10:10:56.000Z</time>
      </trkpt>
      <trkpt lat="45.75668" lon="6.66202">
        <ele>2054</ele>
        <time>2014-04-07T10:11:01.000Z</time>
      </trkpt>
      <trkpt lat="45.75666" lon="6.66203">
        <ele>2054.3999023438</ele>
        <time>2014-04-07T10:11:05.000Z</time>
      </trkpt>
      <trkpt lat="45.75663" lon="6.66202">
        <ele>2054.8000488281</ele>
        <time>2014-04-07T10:11:10.000Z</time>
      </trkpt>
      <trkpt lat="45.7566" lon="6.66201">
        <ele>2055.1999511719</ele>
        <time>2014-04-07T10:11:17.000Z</time>
      </trkpt>
      <trkpt lat="45.75656" lon="6.662">
        <ele>2055.8000488281</ele>
        <time>2014-04-07T10:11:24.000Z</time>
      </trkpt>
      <trkpt lat="45.75654" lon="6.662">
        <ele>2056</ele>
        <time>2014-04-07T10:11:29.000Z</time>
      </trkpt>
      <trkpt lat="45.75652" lon="6.66199">
        <ele>2056.3999023438</ele>
        <time>2014-04-07T10:11:34.000Z</time>
      </trkpt>
      <trkpt lat="45.7565" lon="6.66199">
        <ele>2056.6000976562</ele>
        <time>2014-04-07T10:11:39.000Z</time>
      </trkpt>
      <trkpt lat="45.75647" lon="6.66199">
        <ele>2057.1999511719</ele>
        <time>2014-04-07T10:11:45.000Z</time>
      </trkpt>
      <trkpt lat="45.75645" lon="6.66199">
        <ele>2057.3999023438</ele>
        <time>2014-04-07T10:11:50.000Z</time>
      </trkpt>
      <trkpt lat="45.75643" lon="6.66199">
        <ele>2057.8000488281</ele>
        <time>2014-04-07T10:11:54.000Z</time>
      </trkpt>
      <trkpt lat="45.7564" lon="6.66199">
        <ele>2058.1999511719</ele>
        <time>2014-04-07T10:12:01.000Z</time>
      </trkpt>
      <trkpt lat="45.75637" lon="6.66199">
        <ele>2058.8000488281</ele>
        <time>2014-04-07T10:12:06.000Z</time>
      </trkpt>
      <trkpt lat="45.75635" lon="6.66199">
        <ele>2059</ele>
        <time>2014-04-07T10:12:11.000Z</time>
      </trkpt>
      <trkpt lat="45.75633" lon="6.66199">
        <ele>2059.6000976562</ele>
        <time>2014-04-07T10:12:16.000Z</time>
      </trkpt>
      <trkpt lat="45.75628" lon="6.662">
        <ele>2060.3999023438</ele>
        <time>2014-04-07T10:12:25.000Z</time>
      </trkpt>
      <trkpt lat="45.75625" lon="6.662">
        <ele>2061</ele>
        <time>2014-04-07T10:12:31.000Z</time>
      </trkpt>
      <trkpt lat="45.75623" lon="6.66201">
        <ele>2061.3999023438</ele>
        <time>2014-04-07T10:12:35.000Z</time>
      </trkpt>
      <trkpt lat="45.7562" lon="6.66202">
        <ele>2062.1999511719</ele>
        <time>2014-04-07T10:12:41.000Z</time>
      </trkpt>
      <trkpt lat="45.75618" lon="6.66204">
        <ele>2062.8000488281</ele>
        <time>2014-04-07T10:12:46.000Z</time>
      </trkpt>
      <trkpt lat="45.75616" lon="6.66204">
        <ele>2063.1999511719</ele>
        <time>2014-04-07T10:12:50.000Z</time>
      </trkpt>
      <trkpt lat="45.75613" lon="6.66204">
        <ele>2063.6000976562</ele>
        <time>2014-04-07T10:12:55.000Z</time>
      </trkpt>
      <trkpt lat="45.75611" lon="6.66204">
        <ele>2064</ele>
        <time>2014-04-07T10:13:00.000Z</time>
      </trkpt>
      <trkpt lat="45.75609" lon="6.66205">
        <ele>2064.3999023438</ele>
        <time>2014-04-07T10:13:04.000Z</time>
      </trkpt>
      <trkpt lat="45.75606" lon="6.66205">
        <ele>2065</ele>
        <time>2014-04-07T10:13:10.000Z</time>
      </trkpt>
      <trkpt lat="45.75603" lon="6.66205">
        <ele>2065.3999023438</ele>
        <time>2014-04-07T10:13:15.000Z</time>
      </trkpt>
      <trkpt lat="45.75603" lon="6.66206">
        <ele>2065.6000976562</ele>
        <time>2014-04-07T10:13:16.000Z</time>
      </trkpt>
      <trkpt lat="45.75603" lon="6.66206">
        <ele>2065.6000976562</ele>
        <time>2014-04-07T10:13:16.000Z</time>
      </trkpt>
      <trkpt lat="45.75599" lon="6.66206">
        <ele>2066.3999023438</ele>
        <time>2014-04-07T10:13:24.000Z</time>
      </trkpt>
      <trkpt lat="45.75595" lon="6.66207">
        <ele>2067.1999511719</ele>
        <time>2014-04-07T10:13:31.000Z</time>
      </trkpt>
      <trkpt lat="45.75591" lon="6.66208">
        <ele>2068</ele>
        <time>2014-04-07T10:13:38.000Z</time>
      </trkpt>
      <trkpt lat="45.75588" lon="6.66208">
        <ele>2068.6000976562</ele>
        <time>2014-04-07T10:13:44.000Z</time>
      </trkpt>
      <trkpt lat="45.75584" lon="6.66208">
        <ele>2069.3999023438</ele>
        <time>2014-04-07T10:13:51.000Z</time>
      </trkpt>
      <trkpt lat="45.7558" lon="6.66209">
        <ele>2070</ele>
        <time>2014-04-07T10:13:58.000Z</time>
      </trkpt>
      <trkpt lat="45.75575" lon="6.66209">
        <ele>2070.3999023438</ele>
        <time>2014-04-07T10:14:06.000Z</time>
      </trkpt>
      <trkpt lat="45.75571" lon="6.66211">
        <ele>2071.1999511719</ele>
        <time>2014-04-07T10:14:15.000Z</time>
      </trkpt>
      <trkpt lat="45.75566" lon="6.66214">
        <ele>2072</ele>
        <time>2014-04-07T10:14:23.000Z</time>
      </trkpt>
      <trkpt lat="45.75565" lon="6.66214">
        <ele>2072.3999023438</ele>
        <time>2014-04-07T10:14:30.000Z</time>
      </trkpt>
      <trkpt lat="45.75561" lon="6.66216">
        <ele>2073</ele>
        <time>2014-04-07T10:14:37.000Z</time>
      </trkpt>
      <trkpt lat="45.75559" lon="6.66217">
        <ele>2073.3999023438</ele>
        <time>2014-04-07T10:14:43.000Z</time>
      </trkpt>
      <trkpt lat="45.75559" lon="6.66217">
        <ele>2073.3999023438</ele>
        <time>2014-04-07T10:14:51.000Z</time>
      </trkpt>
      <trkpt lat="45.75562" lon="6.66221">
        <ele>2074</ele>
        <time>2014-04-07T10:15:28.000Z</time>
      </trkpt>
      <trkpt lat="45.75561" lon="6.66223">
        <ele>2074.6000976562</ele>
        <time>2014-04-07T10:16:16.000Z</time>
      </trkpt>
      <trkpt lat="45.75561" lon="6.66221">
        <ele>2074.1999511719</ele>
        <time>2014-04-07T10:18:00.000Z</time>
      </trkpt>
      <trkpt lat="45.75562" lon="6.66223">
        <ele>2074.3999023438</ele>
        <time>2014-04-07T10:18:17.000Z</time>
      </trkpt>
      <trkpt lat="45.75563" lon="6.66221">
        <ele>2074</ele>
        <time>2014-04-07T10:18:45.000Z</time>
      </trkpt>
      <trkpt lat="45.75563" lon="6.66222">
        <ele>2074.1999511719</ele>
        <time>2014-04-07T10:19:16.000Z</time>
      </trkpt>
      <trkpt lat="45.75562" lon="6.66222">
        <ele>2074.1999511719</ele>
        <time>2014-04-07T10:19:39.000Z</time>
      </trkpt>
      <trkpt lat="45.75561" lon="6.66222">
        <ele>2074.1999511719</ele>
        <time>2014-04-07T10:19:53.000Z</time>
      </trkpt>
      <trkpt lat="45.75562" lon="6.66222">
        <ele>2074.3999023438</ele>
        <time>2014-04-07T10:20:01.000Z</time>
      </trkpt>
      <trkpt lat="45.75563" lon="6.66224">
        <ele>2074.3999023438</ele>
        <time>2014-04-07T10:21:50.000Z</time>
      </trkpt>
      <trkpt lat="45.75561" lon="6.66225">
        <ele>2075</ele>
        <time>2014-04-07T10:22:50.000Z</time>
      </trkpt>
      <trkpt lat="45.75557" lon="6.66225">
        <ele>2075.3999023438</ele>
        <time>2014-04-07T10:23:07.000Z</time>
      </trkpt>
      <trkpt lat="45.75555" lon="6.66228">
        <ele>2076.3999023438</ele>
        <time>2014-04-07T10:23:23.000Z</time>
      </trkpt>
      <trkpt lat="45.75553" lon="6.6623">
        <ele>2077</ele>
        <time>2014-04-07T10:23:29.000Z</time>
      </trkpt>
      <trkpt lat="45.75551" lon="6.66231">
        <ele>2077.3999023438</ele>
        <time>2014-04-07T10:23:34.000Z</time>
      </trkpt>
      <trkpt lat="45.7555" lon="6.66233">
        <ele>2077.8000488281</ele>
        <time>2014-04-07T10:23:39.000Z</time>
      </trkpt>
      <trkpt lat="45.75549" lon="6.66236">
        <ele>2078.6000976562</ele>
        <time>2014-04-07T10:23:47.000Z</time>
      </trkpt>
      <trkpt lat="45.75549" lon="6.66239">
        <ele>2079.3999023438</ele>
        <time>2014-04-07T10:23:52.000Z</time>
      </trkpt>
      <trkpt lat="45.75548" lon="6.66242">
        <ele>2080</ele>
        <time>2014-04-07T10:23:58.000Z</time>
      </trkpt>
      <trkpt lat="45.75548" lon="6.66245">
        <ele>2080.8000488281</ele>
        <time>2014-04-07T10:24:03.000Z</time>
      </trkpt>
      <trkpt lat="45.75548" lon="6.66248">
        <ele>2081.3999023438</ele>
        <time>2014-04-07T10:24:08.000Z</time>
      </trkpt>
      <trkpt lat="45.75547" lon="6.66251">
        <ele>2081.8000488281</ele>
        <time>2014-04-07T10:24:14.000Z</time>
      </trkpt>
      <trkpt lat="45.75547" lon="6.66253">
        <ele>2081.1999511719</ele>
        <time>2014-04-07T10:24:19.000Z</time>
      </trkpt>
      <trkpt lat="45.75546" lon="6.66257">
        <ele>2080.6000976562</ele>
        <time>2014-04-07T10:24:27.000Z</time>
      </trkpt>
      <trkpt lat="45.75546" lon="6.66259">
        <ele>2080.1999511719</ele>
        <time>2014-04-07T10:24:33.000Z</time>
      </trkpt>
      <trkpt lat="45.75546" lon="6.66262">
        <ele>2079.6000976562</ele>
        <time>2014-04-07T10:24:38.000Z</time>
      </trkpt>
      <trkpt lat="45.75546" lon="6.66263">
        <ele>2079.3999023438</ele>
        <time>2014-04-07T10:24:47.000Z</time>
      </trkpt>
      <trkpt lat="45.75546" lon="6.66266">
        <ele>2078.8000488281</ele>
        <time>2014-04-07T10:24:59.000Z</time>
      </trkpt>
      <trkpt lat="45.75545" lon="6.6627">
        <ele>2078.1999511719</ele>
        <time>2014-04-07T10:25:05.000Z</time>
      </trkpt>
      <trkpt lat="45.75542" lon="6.66274">
        <ele>2077.6000976562</ele>
        <time>2014-04-07T10:25:13.000Z</time>
      </trkpt>
      <trkpt lat="45.75541" lon="6.66275">
        <ele>2077.6000976562</ele>
        <time>2014-04-07T10:25:17.000Z</time>
      </trkpt>
      <trkpt lat="45.75539" lon="6.66276">
        <ele>2077.6000976562</ele>
        <time>2014-04-07T10:25:21.000Z</time>
      </trkpt>
      <trkpt lat="45.75536" lon="6.66276">
        <ele>2078</ele>
        <time>2014-04-07T10:25:26.000Z</time>
      </trkpt>
      <trkpt lat="45.75532" lon="6.66276">
        <ele>2078.3999023438</ele>
        <time>2014-04-07T10:25:36.000Z</time>
      </trkpt>
      <trkpt lat="45.75529" lon="6.66276">
        <ele>2078.8000488281</ele>
        <time>2014-04-07T10:25:42.000Z</time>
      </trkpt>
      <trkpt lat="45.75522" lon="6.66276">
        <ele>2079.6000976562</ele>
        <time>2014-04-07T10:25:55.000Z</time>
      </trkpt>
      <trkpt lat="45.7552" lon="6.66276">
        <ele>2080</ele>
        <time>2014-04-07T10:26:00.000Z</time>
      </trkpt>
      <trkpt lat="45.75518" lon="6.66276">
        <ele>2080.1999511719</ele>
        <time>2014-04-07T10:26:09.000Z</time>
      </trkpt>
      <trkpt lat="45.75514" lon="6.66275">
        <ele>2080.8000488281</ele>
        <time>2014-04-07T10:26:18.000Z</time>
      </trkpt>
      <trkpt lat="45.75509" lon="6.66273">
        <ele>2081.6000976562</ele>
        <time>2014-04-07T10:26:27.000Z</time>
      </trkpt>
      <trkpt lat="45.75505" lon="6.66272">
        <ele>2082.3999023438</ele>
        <time>2014-04-07T10:26:36.000Z</time>
      </trkpt>
      <trkpt lat="45.75501" lon="6.66272">
        <ele>2083</ele>
        <time>2014-04-07T10:26:44.000Z</time>
      </trkpt>
      <trkpt lat="45.75497" lon="6.66272">
        <ele>2083.3999023438</ele>
        <time>2014-04-07T10:26:52.000Z</time>
      </trkpt>
      <trkpt lat="45.75492" lon="6.66272">
        <ele>2084</ele>
        <time>2014-04-07T10:27:01.000Z</time>
      </trkpt>
      <trkpt lat="45.75489" lon="6.66273">
        <ele>2084.1999511719</ele>
        <time>2014-04-07T10:27:06.000Z</time>
      </trkpt>
      <trkpt lat="45.75486" lon="6.66273">
        <ele>2084.6000976562</ele>
        <time>2014-04-07T10:27:12.000Z</time>
      </trkpt>
      <trkpt lat="45.75482" lon="6.66273">
        <ele>2085</ele>
        <time>2014-04-07T10:27:20.000Z</time>
      </trkpt>
      <trkpt lat="45.75478" lon="6.66274">
        <ele>2085.1999511719</ele>
        <time>2014-04-07T10:27:27.000Z</time>
      </trkpt>
      <trkpt lat="45.75474" lon="6.66276">
        <ele>2085.6000976562</ele>
        <time>2014-04-07T10:27:35.000Z</time>
      </trkpt>
      <trkpt lat="45.75471" lon="6.66277">
        <ele>2085.6000976562</ele>
        <time>2014-04-07T10:27:41.000Z</time>
      </trkpt>
      <trkpt lat="45.75468" lon="6.66279">
        <ele>2085.6000976562</ele>
        <time>2014-04-07T10:27:47.000Z</time>
      </trkpt>
      <trkpt lat="45.75465" lon="6.66281">
        <ele>2085.6000976562</ele>
        <time>2014-04-07T10:27:54.000Z</time>
      </trkpt>
      <trkpt lat="45.7546" lon="6.66284">
        <ele>2085.8000488281</ele>
        <time>2014-04-07T10:28:02.000Z</time>
      </trkpt>
      <trkpt lat="45.75454" lon="6.66285">
        <ele>2086.1999511719</ele>
        <time>2014-04-07T10:28:11.000Z</time>
      </trkpt>
      <trkpt lat="45.75447" lon="6.66286">
        <ele>2086.8000488281</ele>
        <time>2014-04-07T10:28:21.000Z</time>
      </trkpt>
      <trkpt lat="45.75439" lon="6.66286">
        <ele>2087.8000488281</ele>
        <time>2014-04-07T10:28:31.000Z</time>
      </trkpt>
      <trkpt lat="45.75438" lon="6.66286">
        <ele>2088</ele>
        <time>2014-04-07T10:28:32.000Z</time>
      </trkpt>
      <trkpt lat="45.75432" lon="6.66285">
        <ele>2088.8000488281</ele>
        <time>2014-04-07T10:28:41.000Z</time>
      </trkpt>
      <trkpt lat="45.75424" lon="6.66287">
        <ele>2089.3999023438</ele>
        <time>2014-04-07T10:28:49.000Z</time>
      </trkpt>
      <trkpt lat="45.7542" lon="6.66287">
        <ele>2089.8000488281</ele>
        <time>2014-04-07T10:28:57.000Z</time>
      </trkpt>
      <trkpt lat="45.75417" lon="6.66287">
        <ele>2090.3999023438</ele>
        <time>2014-04-07T10:29:05.000Z</time>
      </trkpt>
      <trkpt lat="45.75414" lon="6.66287">
        <ele>2090.8000488281</ele>
        <time>2014-04-07T10:29:13.000Z</time>
      </trkpt>
      <trkpt lat="45.75409" lon="6.66287">
        <ele>2092</ele>
        <time>2014-04-07T10:29:22.000Z</time>
      </trkpt>
      <trkpt lat="45.75405" lon="6.66287">
        <ele>2092.8000488281</ele>
        <time>2014-04-07T10:29:29.000Z</time>
      </trkpt>
      <trkpt lat="45.75401" lon="6.66286">
        <ele>2093.6000976562</ele>
        <time>2014-04-07T10:29:37.000Z</time>
      </trkpt>
      <trkpt lat="45.75397" lon="6.66286">
        <ele>2094.8000488281</ele>
        <time>2014-04-07T10:29:44.000Z</time>
      </trkpt>
      <trkpt lat="45.75392" lon="6.66285">
        <ele>2096</ele>
        <time>2014-04-07T10:29:52.000Z</time>
      </trkpt>
      <trkpt lat="45.75387" lon="6.66284">
        <ele>2097.1999511719</ele>
        <time>2014-04-07T10:30:00.000Z</time>
      </trkpt>
      <trkpt lat="45.75382" lon="6.66283">
        <ele>2098.3999023438</ele>
        <time>2014-04-07T10:30:09.000Z</time>
      </trkpt>
      <trkpt lat="45.75377" lon="6.66282">
        <ele>2099.6000976562</ele>
        <time>2014-04-07T10:30:18.000Z</time>
      </trkpt>
      <trkpt lat="45.75375" lon="6.66282">
        <ele>2100.1999511719</ele>
        <time>2014-04-07T10:30:23.000Z</time>
      </trkpt>
      <trkpt lat="45.75373" lon="6.66282">
        <ele>2100.6000976562</ele>
        <time>2014-04-07T10:30:27.000Z</time>
      </trkpt>
      <trkpt lat="45.7537" lon="6.66282">
        <ele>2101</ele>
        <time>2014-04-07T10:30:35.000Z</time>
      </trkpt>
      <trkpt lat="45.75367" lon="6.66282">
        <ele>2101.8000488281</ele>
        <time>2014-04-07T10:30:59.000Z</time>
      </trkpt>
      <trkpt lat="45.75362" lon="6.66282">
        <ele>2102.8000488281</ele>
        <time>2014-04-07T10:31:07.000Z</time>
      </trkpt>
      <trkpt lat="45.75357" lon="6.66281">
        <ele>2104.1999511719</ele>
        <time>2014-04-07T10:31:16.000Z</time>
      </trkpt>
      <trkpt lat="45.75356" lon="6.66281">
        <ele>2104.3999023438</ele>
        <time>2014-04-07T10:31:20.000Z</time>
      </trkpt>
      <trkpt lat="45.75355" lon="6.66281">
        <ele>2104.3999023438</ele>
        <time>2014-04-07T10:32:13.000Z</time>
      </trkpt>
      <trkpt lat="45.75353" lon="6.66276">
        <ele>2106.3999023438</ele>
        <time>2014-04-07T10:32:38.000Z</time>
      </trkpt>
      <trkpt lat="45.75353" lon="6.66274">
        <ele>2106.6000976562</ele>
        <time>2014-04-07T10:32:42.000Z</time>
      </trkpt>
      <trkpt lat="45.75353" lon="6.66274">
        <ele>2106.6000976562</ele>
        <time>2014-04-07T10:32:50.000Z</time>
      </trkpt>
      <trkpt lat="45.75354" lon="6.66274">
        <ele>2106.6000976562</ele>
        <time>2014-04-07T10:33:15.000Z</time>
      </trkpt>
      <trkpt lat="45.75354" lon="6.66272">
        <ele>2106.8000488281</ele>
        <time>2014-04-07T10:33:23.000Z</time>
      </trkpt>
      <trkpt lat="45.75353" lon="6.66271">
        <ele>2107.1999511719</ele>
        <time>2014-04-07T10:33:39.000Z</time>
      </trkpt>
      <trkpt lat="45.75355" lon="6.66272">
        <ele>2106.8000488281</ele>
        <time>2014-04-07T10:33:48.000Z</time>
      </trkpt>
      <trkpt lat="45.75358" lon="6.66269">
        <ele>2106.6000976562</ele>
        <time>2014-04-07T10:34:56.000Z</time>
      </trkpt>
      <trkpt lat="45.75357" lon="6.66272">
        <ele>2106.1999511719</ele>
        <time>2014-04-07T10:36:35.000Z</time>
      </trkpt>
      <trkpt lat="45.75358" lon="6.66273">
        <ele>2105.8000488281</ele>
        <time>2014-04-07T10:39:26.000Z</time>
      </trkpt>
      <trkpt lat="45.75358" lon="6.66272">
        <ele>2106</ele>
        <time>2014-04-07T10:39:34.000Z</time>
      </trkpt>
    </trkseg>
  </trk>
</gpx>